Observation data for Coyanosa on 01/19/2019      Previous  Date  Next       Current Mesonet Observations  Soil Data  Daily Summary Page  Observations in Plain Language
KCO1 190600Z 33011KT 12/M06 A3012 RMK A01 T01151064  RH  028%=      5-min Rain = 0
KCO1 190601Z 33013KT 11/M06 A3012 RMK A01 T01141064  RH  028%=      5-min Rain = 0
KCO1 190602Z 33014G19KT 11/M06 A3012 RMK A01 T01141062  RH  029%=      5-min Rain = 0
KCO1 190603Z 33013KT 11/M06 A3012 RMK A01 T01131061  RH  029%=      5-min Rain = 0
KCO1 190604Z 34014KT 11/M06 A3012 RMK A01 T01131059  RH  030%=      5-min Rain = 0
KCO1 190605Z 33017KT 11/M05 A3012 RMK A01 T01131054  RH  031%=      5-min Rain = 0
KCO1 190606Z 33016KT 11/M05 A3012 RMK A01 T01131049  RH  032%=      5-min Rain = 0
KCO1 190607Z 34015KT 11/M05 A3012 RMK A01 T01131046  RH  033%=      5-min Rain = 0
KCO1 190608Z 34014KT 11/M04 A3012 RMK A01 T01131044  RH  033%=      5-min Rain = 0
KCO1 190609Z 34014KT 11/M04 A3012 RMK A01 T01121043  RH  033%=      5-min Rain = 0
KCO1 190610Z 34013KT 11/M04 A3013 RMK A01 T01121043  RH  033%=      5-min Rain = 0
KCO1 190611Z 34012KT 11/M04 A3013 RMK A01 T01111043  RH  034%=      5-min Rain = 0
KCO1 190612Z 34012KT 11/M04 A3013 RMK A01 T01111041  RH  034%=      5-min Rain = 0
KCO1 190613Z 34013KT 11/M04 A3013 RMK A01 T01101040  RH  035%=      5-min Rain = 0
KCO1 190614Z 33012KT 11/M04 A3013 RMK A01 T01101038  RH  035%=      5-min Rain = 0
KCO1 190615Z 33012KT 11/M04 A3013 RMK A01 T01091038  RH  035%=      5-min Rain = 0
KCO1 190616Z 34012KT 11/M04 A3013 RMK A01 T01091037  RH  036%=      5-min Rain = 0
KCO1 190617Z 34012KT 11/M04 A3013 RMK A01 T01081036  RH  036%=      5-min Rain = 0
KCO1 190618Z 34011KT 11/M04 A3013 RMK A01 T01081035  RH  037%=      5-min Rain = 0
KCO1 190619Z 33012KT 11/M03 A3013 RMK A01 T01081034  RH  037%=      5-min Rain = 0
KCO1 190620Z 33011KT 11/M03 A3013 RMK A01 T01081033  RH  037%=      5-min Rain = 0
KCO1 190621Z 33011KT 11/M03 A3013 RMK A01 T01071033  RH  037%=      5-min Rain = 0
KCO1 190622Z 33012KT 11/M03 A3013 RMK A01 T01061033  RH  037%=      5-min Rain = 0
KCO1 190623Z 33011KT 11/M03 A3013 RMK A01 T01061033  RH  037%=      5-min Rain = 0
KCO1 190624Z 33010KT 11/M03 A3013 RMK A01 T01061033  RH  037%=      5-min Rain = 0
KCO1 190625Z 33010KT 11/M03 A3013 RMK A01 T01061034  RH  037%=      5-min Rain = 0
KCO1 190626Z 33009KT 11/M03 A3013 RMK A01 T01051034  RH  038%=      5-min Rain = 0
KCO1 190627Z 33010KT 10/M03 A3013 RMK A01 T01041034  RH  038%=      5-min Rain = 0
KCO1 190628Z 33009KT 10/M04 A3013 RMK A01 T01031035  RH  038%=      5-min Rain = 0
KCO1 190629Z 33009KT 10/M04 A3013 RMK A01 T01031035  RH  038%=      5-min Rain = 0
KCO1 190630Z 32008KT 10/M04 A3013 RMK A01 T01021035  RH  038%=      5-min Rain = 0
KCO1 190631Z 32009KT 10/M04 A3013 RMK A01 T01011035  RH  038%=      5-min Rain = 0
KCO1 190632Z 33008KT 10/M04 A3014 RMK A01 T01011035  RH  038%=      5-min Rain = 0
KCO1 190633Z 33009KT 10/M04 A3014 RMK A01 T01001035  RH  039%=      5-min Rain = 0
KCO1 190634Z 33009KT 10/M03 A3014 RMK A01 T01001033  RH  039%=      5-min Rain = 0
KCO1 190635Z 33009KT 10/M03 A3014 RMK A01 T01001032  RH  039%=      5-min Rain = 0
KCO1 190636Z 33009KT 10/M03 A3014 RMK A01 T01001032  RH  040%=      5-min Rain = 0
KCO1 190637Z 33009KT 10/M03 A3014 RMK A01 T00991030  RH  040%=      5-min Rain = 0
KCO1 190638Z 33008KT 10/M03 A3014 RMK A01 T00991029  RH  041%=      5-min Rain = 0
KCO1 190639Z 33008KT 10/M03 A3014 RMK A01 T00981028  RH  041%=      5-min Rain = 0
KCO1 190640Z 33008KT 10/M03 A3014 RMK A01 T00981027  RH  041%=      5-min Rain = 0
KCO1 190641Z 33008KT 10/M03 A3014 RMK A01 T00971027  RH  042%=      5-min Rain = 0
KCO1 190642Z 33009KT 10/M03 A3014 RMK A01 T00971026  RH  042%=      5-min Rain = 0
KCO1 190643Z 33009KT 10/M02 A3014 RMK A01 T00971024  RH  043%=      5-min Rain = 0
KCO1 190644Z 33010KT 10/M02 A3014 RMK A01 T00971023  RH  043%=      5-min Rain = 0
KCO1 190645Z 33010KT 10/M02 A3014 RMK A01 T00971022  RH  043%=      5-min Rain = 0
KCO1 190646Z 33010KT 10/M02 A3014 RMK A01 T00971021  RH  044%=      5-min Rain = 0
KCO1 190647Z 33009KT 10/M02 A3015 RMK A01 T00971020  RH  044%=      5-min Rain = 0
KCO1 190648Z 33009KT 10/M02 A3015 RMK A01 T00971020  RH  044%=      5-min Rain = 0
KCO1 190649Z 33010KT 10/M02 A3015 RMK A01 T00971019  RH  044%=      5-min Rain = 0
KCO1 190650Z 33009KT 10/M02 A3015 RMK A01 T00961018  RH  045%=      5-min Rain = 0
KCO1 190651Z 33009KT 10/M02 A3015 RMK A01 T00951018  RH  045%=      5-min Rain = 0
KCO1 190652Z 33009KT 10/M02 A3015 RMK A01 T00951017  RH  045%=      5-min Rain = 0
KCO1 190653Z 33009KT 09/M02 A3015 RMK A01 T00941017  RH  046%=      5-min Rain = 0
KCO1 190654Z 32008KT 09/M02 A3015 RMK A01 T00931017  RH  046%=      5-min Rain = 0
KCO1 190655Z 33009KT 09/M02 A3015 RMK A01 T00921016  RH  046%=      5-min Rain = 0
KCO1 190656Z 33009KT 09/M02 A3015 RMK A01 T00921016  RH  047%=      5-min Rain = 0
KCO1 190657Z 32008KT 09/M02 A3015 RMK A01 T00911016  RH  047%=      5-min Rain = 0
KCO1 190658Z 32009KT 09/M02 A3015 RMK A01 T00901016  RH  047%=      5-min Rain = 0
KCO1 190659Z 32008KT 09/M02 A3015 RMK A01 T00901015  RH  048%=      5-min Rain = 0
KCO1 190700Z 32008KT 09/M02 A3016 RMK A01 T00901015  RH  048%=      5-min Rain = 0
KCO1 190701Z 33009KT 09/M02 A3016 RMK A01 T00891015  RH  048%=      5-min Rain = 0
KCO1 190702Z 33008KT 09/M02 A3016 RMK A01 T00891015  RH  048%=      5-min Rain = 0
KCO1 190703Z 33009KT 09/M02 A3016 RMK A01 T00891015  RH  048%=      5-min Rain = 0
KCO1 190704Z 33009KT 09/M02 A3016 RMK A01 T00891016  RH  048%=      5-min Rain = 0
KCO1 190705Z 34009KT 09/M02 A3016 RMK A01 T00891016  RH  048%=      5-min Rain = 0
KCO1 190706Z 34008KT 09/M02 A3016 RMK A01 T00891016  RH  048%=      5-min Rain = 0
KCO1 190707Z 34009KT 09/M02 A3017 RMK A01 T00891016  RH  048%=      5-min Rain = 0
KCO1 190708Z 34009KT 09/M02 A3017 RMK A01 T00871017  RH  048%=      5-min Rain = 0
KCO1 190709Z 34008KT 09/M02 A3017 RMK A01 T00861016  RH  049%=      5-min Rain = 0
KCO1 190710Z 34008KT 09/M02 A3017 RMK A01 T00851016  RH  049%=      5-min Rain = 0
KCO1 190711Z 34009KT 09/M02 A3017 RMK A01 T00851015  RH  049%=      5-min Rain = 0
KCO1 190712Z 33010KT 09/M02 A3017 RMK A01 T00861015  RH  049%=      5-min Rain = 0
KCO1 190713Z 33010KT 09/M02 A3017 RMK A01 T00871015  RH  049%=      5-min Rain = 0
KCO1 190714Z 33009KT 09/M01 A3017 RMK A01 T00891014  RH  048%=      5-min Rain = 0
KCO1 190715Z 34009KT 09/M02 A3017 RMK A01 T00891015  RH  048%=      5-min Rain = 0
KCO1 190716Z 33008KT 09/M02 A3017 RMK A01 T00891015  RH  048%=      5-min Rain = 0
KCO1 190717Z 33008KT 09/M02 A3017 RMK A01 T00891015  RH  048%=      5-min Rain = 0
KCO1 190718Z 33008KT 09/M02 A3017 RMK A01 T00881015  RH  048%=      5-min Rain = 0
KCO1 190719Z 33008KT 09/M02 A3017 RMK A01 T00881015  RH  049%=      5-min Rain = 0
KCO1 190720Z 33007KT 09/M02 A3017 RMK A01 T00871015  RH  049%=      5-min Rain = 0
KCO1 190721Z 33007KT 09/M02 A3017 RMK A01 T00851015  RH  049%=      5-min Rain = 0
KCO1 190722Z 33008KT 08/M02 A3017 RMK A01 T00841016  RH  049%=      5-min Rain = 0
KCO1 190723Z 33008KT 08/M02 A3018 RMK A01 T00831016  RH  050%=      5-min Rain = 0
KCO1 190724Z 33008KT 08/M02 A3018 RMK A01 T00831015  RH  050%=      5-min Rain = 0
KCO1 190725Z 33008KT 08/M02 A3018 RMK A01 T00831015  RH  050%=      5-min Rain = 0
KCO1 190726Z 34008KT 08/M02 A3018 RMK A01 T00831015  RH  050%=      5-min Rain = 0
KCO1 190727Z 34007KT 08/M02 A3018 RMK A01 T00821015  RH  050%=      5-min Rain = 0
KCO1 190728Z 33007KT 08/M02 A3018 RMK A01 T00821015  RH  050%=      5-min Rain = 0
KCO1 190729Z 33008KT 08/M02 A3018 RMK A01 T00821015  RH  050%=      5-min Rain = 0
KCO1 190730Z 34007KT 08/M02 A3018 RMK A01 T00811015  RH  051%=      5-min Rain = 0
KCO1 190731Z 34008KT 08/M02 A3018 RMK A01 T00811015  RH  051%=      5-min Rain = 0
KCO1 190732Z 34008KT 08/M02 A3018 RMK A01 T00811015  RH  051%=      5-min Rain = 0
KCO1 190733Z 33007KT 08/M02 A3018 RMK A01 T00801015  RH  051%=      5-min Rain = 0
KCO1 190734Z 33006KT 08/M01 A3018 RMK A01 T00801014  RH  051%=      5-min Rain = 0
KCO1 190735Z 33007KT 08/M02 A3018 RMK A01 T00791015  RH  051%=      5-min Rain = 0
KCO1 190736Z 34008KT 08/M02 A3018 RMK A01 T00791015  RH  052%=      5-min Rain = 0
KCO1 190737Z 33008KT 08/M01 A3018 RMK A01 T00781014  RH  052%=      5-min Rain = 0
KCO1 190738Z 33007KT 08/M01 A3018 RMK A01 T00781014  RH  052%=      5-min Rain = 0
KCO1 190739Z 33007KT 08/M02 A3018 RMK A01 T00771015  RH  052%=      5-min Rain = 0
KCO1 190740Z 33007KT 08/M02 A3019 RMK A01 T00761015  RH  052%=      5-min Rain = 0
KCO1 190741Z 33008KT 08/M02 A3019 RMK A01 T00751015  RH  053%=      5-min Rain = 0
KCO1 190742Z 34008KT 07/M02 A3019 RMK A01 T00741015  RH  053%=      5-min Rain = 0
KCO1 190743Z 34008KT 07/M02 A3019 RMK A01 T00741015  RH  053%=      5-min Rain = 0
KCO1 190744Z 34008KT 07/M01 A3019 RMK A01 T00741014  RH  054%=      5-min Rain = 0
KCO1 190745Z 34009KT 07/M01 A3019 RMK A01 T00731014  RH  054%=      5-min Rain = 0
KCO1 190746Z 34009KT 07/M01 A3019 RMK A01 T00741013  RH  054%=      5-min Rain = 0
KCO1 190747Z 34009KT 08/M01 A3019 RMK A01 T00751013  RH  054%=      5-min Rain = 0
KCO1 190748Z 34009KT 08/M01 A3019 RMK A01 T00761012  RH  054%=      5-min Rain = 0
KCO1 190749Z 34009KT 08/M01 A302 RMK A01 T00771012  RH  053%=      5-min Rain = 0
KCO1 190750Z 34010KT 08/M01 A302 RMK A01 T00771012  RH  053%=      5-min Rain = 0
KCO1 190751Z 33011KT 08/M01 A302 RMK A01 T00771011  RH  053%=      5-min Rain = 0
KCO1 190752Z 33012KT 08/M01 A302 RMK A01 T00781011  RH  053%=      5-min Rain = 0
KCO1 190753Z 34013KT 08/M01 A3019 RMK A01 T00821005  RH  054%=      5-min Rain = 0
KCO1 190754Z 33010KT 09/M00 A302 RMK A01 T00871003  RH  053%=      5-min Rain = 0
KCO1 190755Z 34009KT 09/M01 A302 RMK A01 T00881006  RH  052%=      5-min Rain = 0
KCO1 190756Z 33010G15KT 09/M01 A302 RMK A01 T00871009  RH  051%=      5-min Rain = 0
KCO1 190757Z 34015KT 09/M01 A302 RMK A01 T00851007  RH  052%=      5-min Rain = 0
KCO1 190758Z 34011KT 09/M01 A302 RMK A01 T00871005  RH  052%=      5-min Rain = 0
KCO1 190759Z 34016KT 09/M01 A302 RMK A01 T00871006  RH  052%=      5-min Rain = 0
KCO1 190800Z 33013KT 09/M00 A302 RMK A01 T00881003  RH  053%=      5-min Rain = 0
KCO1 190801Z 33011KT 09/M01 A302 RMK A01 T00881005  RH  052%=      5-min Rain = 0
KCO1 190802Z 34014KT 09/M01 A302 RMK A01 T00871006  RH  052%=      5-min Rain = 0
KCO1 190803Z 34013KT 09/M01 A3021 RMK A01 T00871005  RH  053%=      5-min Rain = 0
KCO1 190804Z 34013KT 09/M01 A3021 RMK A01 T00861005  RH  053%=      5-min Rain = 0
KCO1 190805Z 34015KT 09/M00 A3021 RMK A01 T00861002  RH  054%=      5-min Rain = 0
KCO1 190806Z 34015KT 09/00 A3021 RMK A01 T008700-0  RH  054%=      5-min Rain = 0
KCO1 190807Z 34013KT 09/00 A3021 RMK A01 T00880001  RH  054%=      5-min Rain = 0
KCO1 190808Z 34013KT 09/00 A3021 RMK A01 T00890001  RH  054%=      5-min Rain = 0
KCO1 190809Z 34012KT 09/00 A3021 RMK A01 T00890000  RH  054%=      5-min Rain = 0
KCO1 190810Z 34011KT 09/00 A3021 RMK A01 T008800-0  RH  054%=      5-min Rain = 0
KCO1 190811Z 34010KT 09/M00 A3021 RMK A01 T00861001  RH  054%=      5-min Rain = 0
KCO1 190812Z 34011KT 09/M00 A3021 RMK A01 T00851001  RH  055%=      5-min Rain = 0
KCO1 190813Z 34011KT 09/00 A3021 RMK A01 T008500-0  RH  055%=      5-min Rain = 0
KCO1 190814Z 34010KT 08/M00 A3021 RMK A01 T00841001  RH  055%=      5-min Rain = 0
KCO1 190815Z 34012KT 08/M00 A3021 RMK A01 T00831001  RH  055%=      5-min Rain = 0
KCO1 190816Z 34011KT 08/00 A3021 RMK A01 T00830000  RH  056%=      5-min Rain = 0
KCO1 190817Z 34011KT 08/00 A3021 RMK A01 T00830000  RH  056%=      5-min Rain = 0
KCO1 190818Z 34012KT 08/00 A3021 RMK A01 T008300-0  RH  056%=      5-min Rain = 0
KCO1 190819Z 34012KT 08/00 A3021 RMK A01 T00830001  RH  056%=      5-min Rain = 0
KCO1 190820Z 34010KT 08/00 A3022 RMK A01 T00820001  RH  057%=      5-min Rain = 0
KCO1 190821Z 34010KT 08/00 A3022 RMK A01 T00820001  RH  057%=      5-min Rain = 0
KCO1 190822Z 34011KT 08/00 A3022 RMK A01 T00810000  RH  057%=      5-min Rain = 0
KCO1 190823Z 34011KT 08/00 A3022 RMK A01 T00800001  RH  058%=      5-min Rain = 0
KCO1 190824Z 34012KT 08/00 A3022 RMK A01 T00800002  RH  058%=      5-min Rain = 0
KCO1 190825Z 35014KT 08/00 A3022 RMK A01 T00800003  RH  058%=      5-min Rain = 0
KCO1 190826Z 35013KT 08/00 A3022 RMK A01 T00810004  RH  058%=      5-min Rain = 0
KCO1 190827Z 34014KT 08/00 A3022 RMK A01 T00810004  RH  058%=      5-min Rain = 0
KCO1 190828Z 34011KT 08/00 A3022 RMK A01 T00820004  RH  058%=      5-min Rain = 0
KCO1 190829Z 34011KT 08/00 A3022 RMK A01 T00820004  RH  058%=      5-min Rain = 0
KCO1 190830Z 34011KT 08/00 A3022 RMK A01 T00810004  RH  058%=      5-min Rain = 0
KCO1 190831Z 34011KT 08/00 A3022 RMK A01 T00800004  RH  059%=      5-min Rain = 0
KCO1 190832Z 34012G17KT 08/00 A3022 RMK A01 T00790004  RH  059%=      5-min Rain = 0
KCO1 190833Z 34012KT 08/00 A3022 RMK A01 T00790004  RH  059%=      5-min Rain = 0
KCO1 190834Z 34011KT 08/01 A3022 RMK A01 T00800005  RH  059%=      5-min Rain = 0
KCO1 190835Z 34012KT 08/00 A3022 RMK A01 T00800004  RH  059%=      5-min Rain = 0
KCO1 190836Z 34012KT 08/01 A3022 RMK A01 T00790005  RH  059%=      5-min Rain = 0
KCO1 190837Z 34013KT 08/00 A3022 RMK A01 T00790004  RH  059%=      5-min Rain = 0
KCO1 190838Z 35013G18KT 08/01 A3022 RMK A01 T00780005  RH  060%=      5-min Rain = 0
KCO1 190839Z 35013KT 08/00 A3023 RMK A01 T00780004  RH  060%=      5-min Rain = 0
KCO1 190840Z 34013KT 08/01 A3023 RMK A01 T00790005  RH  060%=      5-min Rain = 0
KCO1 190841Z 35014KT 08/00 A3023 RMK A01 T00790004  RH  059%=      5-min Rain = 0
KCO1 190842Z 34014KT 08/01 A3023 RMK A01 T00800005  RH  059%=      5-min Rain = 0
KCO1 190843Z 34012KT 08/00 A3023 RMK A01 T00800004  RH  059%=      5-min Rain = 0
KCO1 190844Z 35014KT 08/00 A3023 RMK A01 T00800003  RH  058%=      5-min Rain = 0
KCO1 190845Z 35013KT 08/00 A3023 RMK A01 T00800004  RH  058%=      5-min Rain = 0
KCO1 190846Z 35014KT 08/00 A3023 RMK A01 T00790003  RH  058%=      5-min Rain = 0
KCO1 190847Z 35013KT 08/00 A3023 RMK A01 T00790003  RH  058%=      5-min Rain = 0
KCO1 190848Z 35013KT 08/00 A3023 RMK A01 T00790002  RH  058%=      5-min Rain = 0
KCO1 190849Z 34012KT 08/00 A3023 RMK A01 T00790002  RH  058%=      5-min Rain = 0
KCO1 190850Z 35014KT 08/00 A3023 RMK A01 T00780001  RH  058%=      5-min Rain = 0
KCO1 190851Z 35013KT 08/00 A3023 RMK A01 T00790001  RH  058%=      5-min Rain = 0
KCO1 190852Z 35012KT 08/00 A3023 RMK A01 T00780000  RH  058%=      5-min Rain = 0
KCO1 190853Z 35011KT 08/00 A3023 RMK A01 T007800-0  RH  058%=      5-min Rain = 0
KCO1 190854Z 35014KT 08/00 A3023 RMK A01 T007800-0  RH  058%=      5-min Rain = 0
KCO1 190855Z 35013KT 08/M00 A3023 RMK A01 T00781001  RH  058%=      5-min Rain = 0
KCO1 190856Z 34013KT 08/M00 A3023 RMK A01 T00781001  RH  057%=      5-min Rain = 0
KCO1 190857Z 35015KT 08/M00 A3024 RMK A01 T00781002  RH  057%=      5-min Rain = 0
KCO1 190858Z 34012KT 08/M00 A3024 RMK A01 T00791002  RH  057%=      5-min Rain = 0
KCO1 190859Z 35011KT 08/M00 A3024 RMK A01 T00781003  RH  057%=      5-min Rain = 0
KCO1 190900Z 35010KT 08/M00 A3024 RMK A01 T00781003  RH  057%=      5-min Rain = 0
KCO1 190901Z 34010KT 08/M00 A3024 RMK A01 T00761003  RH  057%=      5-min Rain = 0
KCO1 190902Z 35010KT 08/M00 A3024 RMK A01 T00761002  RH  057%=      5-min Rain = 0
KCO1 190903Z 35009KT 08/M00 A3024 RMK A01 T00761003  RH  057%=      5-min Rain = 0
KCO1 190904Z 34008KT 08/M00 A3024 RMK A01 T00751003  RH  058%=      5-min Rain = 0
KCO1 190905Z 34010KT 08/M00 A3024 RMK A01 T00751003  RH  058%=      5-min Rain = 0
KCO1 190906Z 35009KT 08/M00 A3024 RMK A01 T00751003  RH  058%=      5-min Rain = 0
KCO1 190907Z 35009KT 07/M00 A3024 RMK A01 T00741003  RH  058%=      5-min Rain = 0
KCO1 190908Z 34009KT 07/M00 A3024 RMK A01 T00741003  RH  058%=      5-min Rain = 0
KCO1 190909Z 35009KT 07/M00 A3025 RMK A01 T00731003  RH  058%=      5-min Rain = 0
KCO1 190910Z 34008KT 07/M00 A3025 RMK A01 T00731003  RH  058%=      5-min Rain = 0
KCO1 190911Z 35009KT 07/M00 A3025 RMK A01 T00731003  RH  058%=      5-min Rain = 0
KCO1 190912Z 34009KT 07/M00 A3025 RMK A01 T00731003  RH  058%=      5-min Rain = 0
KCO1 190913Z 34009KT 07/M00 A3025 RMK A01 T00721003  RH  059%=      5-min Rain = 0
KCO1 190914Z 35009KT 07/M00 A3025 RMK A01 T00721004  RH  059%=      5-min Rain = 0
KCO1 190915Z 34009KT 07/M00 A3025 RMK A01 T00711004  RH  059%=      5-min Rain = 0
KCO1 190916Z 34009KT 07/M00 A3025 RMK A01 T00711004  RH  059%=      5-min Rain = 0
KCO1 190917Z 34009KT 07/M00 A3025 RMK A01 T00711004  RH  059%=      5-min Rain = 0
KCO1 190918Z 35009KT 07/M00 A3026 RMK A01 T00701004  RH  059%=      5-min Rain = 0
KCO1 190919Z 35009KT 07/M01 A3026 RMK A01 T00691005  RH  059%=      5-min Rain = 0
KCO1 190920Z 34009KT 07/M01 A3026 RMK A01 T00681005  RH  060%=      5-min Rain = 0
KCO1 190921Z 35009KT 07/M01 A3026 RMK A01 T00681005  RH  060%=      5-min Rain = 0
KCO1 190922Z 35009KT 07/M01 A3026 RMK A01 T00681005  RH  060%=      5-min Rain = 0
KCO1 190923Z 35010KT 07/M01 A3026 RMK A01 T00671005  RH  060%=      5-min Rain = 0
KCO1 190924Z 35009KT 07/M01 A3026 RMK A01 T00671005  RH  060%=      5-min Rain = 0
KCO1 190925Z 34009KT 07/M01 A3026 RMK A01 T00671005  RH  060%=      5-min Rain = 0
KCO1 190926Z 34009KT 07/M01 A3026 RMK A01 T00661005  RH  060%=      5-min Rain = 0
KCO1 190927Z 35008KT 07/M01 A3026 RMK A01 T00661005  RH  061%=      5-min Rain = 0
KCO1 190928Z 34008KT 07/M01 A3026 RMK A01 T00651005  RH  061%=      5-min Rain = 0
KCO1 190929Z 34009KT 07/M01 A3026 RMK A01 T00651006  RH  061%=      5-min Rain = 0
KCO1 190930Z 34008KT 06/M01 A3026 RMK A01 T00641006  RH  061%=      5-min Rain = 0
KCO1 190931Z 34008KT 06/M01 A3026 RMK A01 T00641006  RH  061%=      5-min Rain = 0
KCO1 190932Z 34008KT 06/M01 A3026 RMK A01 T00641006  RH  061%=      5-min Rain = 0
KCO1 190933Z 34007KT 06/M01 A3026 RMK A01 T00631006  RH  061%=      5-min Rain = 0
KCO1 190934Z 34007KT 06/M01 A3026 RMK A01 T00631006  RH  061%=      5-min Rain = 0
KCO1 190935Z 34008KT 06/M01 A3026 RMK A01 T00631005  RH  062%=      5-min Rain = 0
KCO1 190936Z 34008KT 06/M01 A3026 RMK A01 T00631006  RH  061%=      5-min Rain = 0
KCO1 190937Z 34009KT 06/M01 A3026 RMK A01 T00631006  RH  061%=      5-min Rain = 0
KCO1 190938Z 33008KT 06/M01 A3027 RMK A01 T00631006  RH  061%=      5-min Rain = 0
KCO1 190939Z 34008KT 06/M01 A3027 RMK A01 T00631007  RH  061%=      5-min Rain = 0
KCO1 190940Z 34008KT 06/M01 A3027 RMK A01 T00631007  RH  061%=      5-min Rain = 0
KCO1 190941Z 34009KT 06/M01 A3027 RMK A01 T00631007  RH  061%=      5-min Rain = 0
KCO1 190942Z 34008KT 06/M01 A3027 RMK A01 T00631007  RH  061%=      5-min Rain = 0
KCO1 190943Z 34008KT 06/M01 A3027 RMK A01 T00631007  RH  061%=      5-min Rain = 0
KCO1 190944Z 34009KT 06/M01 A3027 RMK A01 T00631008  RH  061%=      5-min Rain = 0
KCO1 190945Z 34009KT 06/M01 A3027 RMK A01 T00631008  RH  061%=      5-min Rain = 0
KCO1 190946Z 34008KT 06/M01 A3027 RMK A01 T00631008  RH  061%=      5-min Rain = 0
KCO1 190947Z 34008KT 06/M01 A3027 RMK A01 T00631007  RH  061%=      5-min Rain = 0
KCO1 190948Z 34008KT 06/M01 A3027 RMK A01 T00631008  RH  061%=      5-min Rain = 0
KCO1 190949Z 34008KT 06/M01 A3027 RMK A01 T00631008  RH  061%=      5-min Rain = 0
KCO1 190950Z 34009KT 06/M01 A3027 RMK A01 T00631008  RH  060%=      5-min Rain = 0
KCO1 190951Z 34009KT 06/M01 A3027 RMK A01 T00631008  RH  060%=      5-min Rain = 0
KCO1 190952Z 34008KT 06/M01 A3028 RMK A01 T00631009  RH  060%=      5-min Rain = 0
KCO1 190953Z 34009KT 06/M01 A3028 RMK A01 T00631009  RH  060%=      5-min Rain = 0
KCO1 190954Z 34009KT 06/M01 A3028 RMK A01 T00631009  RH  060%=      5-min Rain = 0
KCO1 190955Z 34009KT 06/M01 A3028 RMK A01 T00631009  RH  060%=      5-min Rain = 0
KCO1 190956Z 34009KT 06/M01 A3028 RMK A01 T00621009  RH  060%=      5-min Rain = 0
KCO1 190957Z 34008KT 06/M01 A3028 RMK A01 T00631009  RH  060%=      5-min Rain = 0
KCO1 190958Z 34008KT 06/M01 A3028 RMK A01 T00621009  RH  060%=      5-min Rain = 0
KCO1 190959Z 34008KT 06/M01 A3028 RMK A01 T00621009  RH  060%=      5-min Rain = 0
KCO1 191000Z 34009KT 06/M01 A3028 RMK A01 T00621009  RH  060%=      5-min Rain = 0
KCO1 191001Z 34009KT 06/M01 A3028 RMK A01 T00621009  RH  060%=      5-min Rain = 0
KCO1 191002Z 34009KT 06/M01 A3028 RMK A01 T00611010  RH  060%=      5-min Rain = 0
KCO1 191003Z 34008KT 06/M01 A3028 RMK A01 T00611010  RH  061%=      5-min Rain = 0
KCO1 191004Z 34009KT 06/M01 A3028 RMK A01 T00601010  RH  061%=      5-min Rain = 0
KCO1 191005Z 34009KT 06/M01 A3028 RMK A01 T00601010  RH  061%=      5-min Rain = 0
KCO1 191006Z 34010KT 06/M01 A3028 RMK A01 T00601010  RH  061%=      5-min Rain = 0
KCO1 191007Z 34009KT 06/M01 A3028 RMK A01 T00601009  RH  061%=      5-min Rain = 0
KCO1 191008Z 34008KT 06/M01 A3028 RMK A01 T00591010  RH  061%=      5-min Rain = 0
KCO1 191009Z 34009KT 06/M01 A3028 RMK A01 T00591010  RH  061%=      5-min Rain = 0
KCO1 191010Z 34008KT 06/M01 A3028 RMK A01 T00581010  RH  061%=      5-min Rain = 0
KCO1 191011Z 33009KT 06/M01 A3028 RMK A01 T00581010  RH  062%=      5-min Rain = 0
KCO1 191012Z 33009KT 06/M01 A3028 RMK A01 T00571011  RH  062%=      5-min Rain = 0
KCO1 191013Z 33011KT 06/M01 A3028 RMK A01 T00561011  RH  062%=      5-min Rain = 0
KCO1 191014Z 34011G16KT 06/M01 A3028 RMK A01 T00561010  RH  062%=      5-min Rain = 0
KCO1 191015Z 33012KT 06/M01 A3028 RMK A01 T00571010  RH  062%=      5-min Rain = 0
KCO1 191016Z 33014G19KT 06/M01 A3028 RMK A01 T00581011  RH  061%=      5-min Rain = 0
KCO1 191017Z 33010KT 06/M01 A3028 RMK A01 T00611011  RH  060%=      5-min Rain = 0
KCO1 191018Z 33010KT 06/M01 A3028 RMK A01 T00621011  RH  059%=      5-min Rain = 0
KCO1 191019Z 33011KT 06/M01 A3028 RMK A01 T00611011  RH  060%=      5-min Rain = 0
KCO1 191020Z 34012KT 06/M01 A3028 RMK A01 T00611011  RH  060%=      5-min Rain = 0
KCO1 191021Z 34011KT 06/M01 A3028 RMK A01 T00611012  RH  059%=      5-min Rain = 0
KCO1 191022Z 34010KT 06/M01 A3028 RMK A01 T00601013  RH  059%=      5-min Rain = 0
KCO1 191023Z 33009KT 06/M01 A3028 RMK A01 T00591012  RH  060%=      5-min Rain = 0
KCO1 191024Z 33009KT 06/M01 A3028 RMK A01 T00581012  RH  061%=      5-min Rain = 0
KCO1 191025Z 33010KT 06/M01 A3028 RMK A01 T00581012  RH  061%=      5-min Rain = 0
KCO1 191026Z 33011KT 06/M01 A3028 RMK A01 T00571012  RH  061%=      5-min Rain = 0
KCO1 191027Z 33010KT 06/M01 A3028 RMK A01 T00581012  RH  061%=      5-min Rain = 0
KCO1 191028Z 33011KT 06/M01 A3028 RMK A01 T00581012  RH  061%=      5-min Rain = 0
KCO1 191029Z 33012KT 06/M01 A3028 RMK A01 T00591013  RH  060%=      5-min Rain = 0
KCO1 191030Z 33011KT 06/M01 A3028 RMK A01 T00601013  RH  059%=      5-min Rain = 0
KCO1 191031Z 33012KT 06/M01 A3028 RMK A01 T00601013  RH  060%=      5-min Rain = 0
KCO1 191032Z 33011KT 06/M01 A3028 RMK A01 T00591013  RH  060%=      5-min Rain = 0
KCO1 191033Z 33011KT 06/M01 A3028 RMK A01 T00591013  RH  060%=      5-min Rain = 0
KCO1 191034Z 33012KT 06/M01 A3028 RMK A01 T00591013  RH  060%=      5-min Rain = 0
KCO1 191035Z 33012KT 06/M01 A3028 RMK A01 T00581014  RH  060%=      5-min Rain = 0
KCO1 191036Z 33011KT 06/M01 A3028 RMK A01 T00581014  RH  060%=      5-min Rain = 0
KCO1 191037Z 33012KT 06/M01 A3028 RMK A01 T00581014  RH  060%=      5-min Rain = 0
KCO1 191038Z 33012KT 06/M01 A3028 RMK A01 T00581014  RH  060%=      5-min Rain = 0
KCO1 191039Z 33011KT 06/M02 A3028 RMK A01 T00581015  RH  060%=      5-min Rain = 0
KCO1 191040Z 33012KT 06/M02 A3028 RMK A01 T00571015  RH  060%=      5-min Rain = 0
KCO1 191041Z 33012KT 06/M02 A3028 RMK A01 T00571016  RH  059%=      5-min Rain = 0
KCO1 191042Z 33012KT 06/M02 A3028 RMK A01 T00571018  RH  059%=      5-min Rain = 0
KCO1 191043Z 33012KT 06/M02 A3028 RMK A01 T00581018  RH  058%=      5-min Rain = 0
KCO1 191044Z 33011KT 06/M02 A3028 RMK A01 T00581017  RH  059%=      5-min Rain = 0
KCO1 191045Z 33010KT 06/M02 A3028 RMK A01 T00571018  RH  059%=      5-min Rain = 0
KCO1 191046Z 33012KT 06/M02 A3028 RMK A01 T00561018  RH  059%=      5-min Rain = 0
KCO1 191047Z 33013KT 06/M02 A3028 RMK A01 T00561019  RH  059%=      5-min Rain = 0
KCO1 191048Z 33013KT 06/M02 A3028 RMK A01 T00561020  RH  058%=      5-min Rain = 0
KCO1 191049Z 32011KT 06/M02 A3028 RMK A01 T00571020  RH  058%=      5-min Rain = 0
KCO1 191050Z 32012KT 06/M02 A3028 RMK A01 T00571020  RH  058%=      5-min Rain = 0
KCO1 191051Z 32010KT 06/M02 A3028 RMK A01 T00561019  RH  058%=      5-min Rain = 0
KCO1 191052Z 32011KT 06/M02 A3028 RMK A01 T00561020  RH  058%=      5-min Rain = 0
KCO1 191053Z 33011KT 06/M02 A3028 RMK A01 T00551020  RH  058%=      5-min Rain = 0
KCO1 191054Z 32011KT 06/M02 A3028 RMK A01 T00551020  RH  058%=      5-min Rain = 0
KCO1 191055Z 32010KT 05/M02 A3028 RMK A01 T00541020  RH  059%=      5-min Rain = 0
KCO1 191056Z 33010KT 05/M02 A3028 RMK A01 T00541020  RH  059%=      5-min Rain = 0
KCO1 191057Z 32010KT 05/M02 A3028 RMK A01 T00531020  RH  059%=      5-min Rain = 0
KCO1 191058Z 32010KT 05/M02 A3028 RMK A01 T00521020  RH  059%=      5-min Rain = 0
KCO1 191059Z 32010KT 05/M02 A3028 RMK A01 T00521020  RH  060%=      5-min Rain = 0
KCO1 191100Z 32010KT 05/M02 A3028 RMK A01 T00521020  RH  060%=      5-min Rain = 0
KCO1 191101Z 32009KT 05/M02 A3028 RMK A01 T00521020  RH  060%=      5-min Rain = 0
KCO1 191102Z 32009KT 05/M02 A3028 RMK A01 T00511021  RH  060%=      5-min Rain = 0
KCO1 191103Z 32009KT 05/M02 A3028 RMK A01 T00511021  RH  060%=      5-min Rain = 0
KCO1 191104Z 32009KT 05/M02 A3028 RMK A01 T00501020  RH  060%=      5-min Rain = 0
KCO1 191105Z 32008KT 05/M02 A3028 RMK A01 T00501020  RH  060%=      5-min Rain = 0
KCO1 191106Z 32009KT 05/M02 A3028 RMK A01 T00491021  RH  061%=      5-min Rain = 0
KCO1 191107Z 32008KT 05/M02 A3028 RMK A01 T00481021  RH  061%=      5-min Rain = 0
KCO1 191108Z 32009KT 05/M02 A3028 RMK A01 T00481021  RH  061%=      5-min Rain = 0
KCO1 191109Z 32008KT 05/M02 A3028 RMK A01 T00471021  RH  061%=      5-min Rain = 0
KCO1 191110Z 32008KT 05/M02 A3028 RMK A01 T00471021  RH  061%=      5-min Rain = 0
KCO1 191111Z 32008KT 05/M02 A3028 RMK A01 T00471021  RH  061%=      5-min Rain = 0
KCO1 191112Z 32007KT 05/M02 A3028 RMK A01 T00461022  RH  061%=      5-min Rain = 0
KCO1 191113Z 32009KT 05/M02 A3028 RMK A01 T00461022  RH  062%=      5-min Rain = 0
KCO1 191114Z 32008KT 05/M02 A3028 RMK A01 T00461022  RH  062%=      5-min Rain = 0
KCO1 191115Z 32008KT 05/M02 A3028 RMK A01 T00461022  RH  061%=      5-min Rain = 0
KCO1 191116Z 31009KT 05/M02 A3028 RMK A01 T00461022  RH  061%=      5-min Rain = 0
KCO1 191117Z 32008KT 05/M02 A3028 RMK A01 T00461023  RH  061%=      5-min Rain = 0
KCO1 191118Z 32009KT 05/M02 A3028 RMK A01 T00461023  RH  061%=      5-min Rain = 0
KCO1 191119Z 32009KT 05/M02 A3028 RMK A01 T00461023  RH  061%=      5-min Rain = 0
KCO1 191120Z 32009KT 05/M02 A3028 RMK A01 T00461023  RH  061%=      5-min Rain = 0
KCO1 191121Z 32010KT 05/M02 A3029 RMK A01 T00461023  RH  061%=      5-min Rain = 0
KCO1 191122Z 32010KT 05/M02 A3029 RMK A01 T00461024  RH  061%=      5-min Rain = 0
KCO1 191123Z 32010KT 05/M03 A3029 RMK A01 T00451025  RH  060%=      5-min Rain = 0
KCO1 191124Z 32010KT 05/M03 A3029 RMK A01 T00461025  RH  060%=      5-min Rain = 0
KCO1 191125Z 32010KT 05/M03 A3029 RMK A01 T00461026  RH  059%=      5-min Rain = 0
KCO1 191126Z 32012KT 05/M03 A3028 RMK A01 T00471027  RH  059%=      5-min Rain = 0
KCO1 191127Z 32012KT 05/M03 A3028 RMK A01 T00481027  RH  058%=      5-min Rain = 0
KCO1 191128Z 32011KT 05/M03 A3028 RMK A01 T00491028  RH  058%=      5-min Rain = 0
KCO1 191129Z 32011KT 05/M03 A3028 RMK A01 T00501028  RH  057%=      5-min Rain = 0
KCO1 191130Z 33011KT 05/M03 A3028 RMK A01 T00501029  RH  057%=      5-min Rain = 0
KCO1 191131Z 33011KT 05/M03 A3028 RMK A01 T00501029  RH  056%=      5-min Rain = 0
KCO1 191132Z 33010KT 05/M03 A3028 RMK A01 T00501029  RH  056%=      5-min Rain = 0
KCO1 191133Z 32010KT 05/M03 A3028 RMK A01 T00501030  RH  057%=      5-min Rain = 0
KCO1 191134Z 33010KT 05/M03 A3028 RMK A01 T00491029  RH  057%=      5-min Rain = 0
KCO1 191135Z 32011KT 05/M03 A3028 RMK A01 T00481029  RH  057%=      5-min Rain = 0
KCO1 191136Z 32010KT 05/M03 A3028 RMK A01 T00481030  RH  057%=      5-min Rain = 0
KCO1 191137Z 32009KT 05/M03 A3028 RMK A01 T00471030  RH  057%=      5-min Rain = 0
KCO1 191138Z 32011KT 05/M03 A3028 RMK A01 T00471030  RH  057%=      5-min Rain = 0
KCO1 191139Z 32012KT 05/M03 A3028 RMK A01 T00471030  RH  057%=      5-min Rain = 0
KCO1 191140Z 32010KT 05/M03 A3028 RMK A01 T00481030  RH  057%=      5-min Rain = 0
KCO1 191141Z 32011KT 05/M03 A3028 RMK A01 T00471030  RH  057%=      5-min Rain = 0
KCO1 191142Z 32010KT 05/M03 A3028 RMK A01 T00481030  RH  057%=      5-min Rain = 0
KCO1 191143Z 32011KT 05/M03 A3028 RMK A01 T00471030  RH  057%=      5-min Rain = 0
KCO1 191144Z 32010KT 05/M03 A3028 RMK A01 T00461031  RH  057%=      5-min Rain = 0
KCO1 191145Z 32010KT 05/M03 A3029 RMK A01 T00461031  RH  057%=      5-min Rain = 0
KCO1 191146Z 32009KT 05/M03 A3028 RMK A01 T00451031  RH  058%=      5-min Rain = 0
KCO1 191147Z 32009KT 04/M03 A3029 RMK A01 T00441031  RH  058%=      5-min Rain = 0
KCO1 191148Z 31009KT 04/M03 A3029 RMK A01 T00441031  RH  058%=      5-min Rain = 0
KCO1 191149Z 31009KT 04/M03 A3029 RMK A01 T00431031  RH  059%=      5-min Rain = 0
KCO1 191150Z 31009KT 04/M03 A3029 RMK A01 T00421031  RH  059%=      5-min Rain = 0
KCO1 191151Z 31010KT 04/M03 A3029 RMK A01 T00421032  RH  059%=      5-min Rain = 0
KCO1 191152Z 31009KT 04/M03 A3029 RMK A01 T00421032  RH  059%=      5-min Rain = 0
KCO1 191153Z 31009KT 04/M03 A3029 RMK A01 T00431032  RH  058%=      5-min Rain = 0
KCO1 191154Z 32010KT 04/M03 A3029 RMK A01 T00441032  RH  058%=      5-min Rain = 0
KCO1 191155Z 32010KT 05/M03 A3029 RMK A01 T00461032  RH  057%=      5-min Rain = 0
KCO1 191156Z 32009KT 05/M03 A3029 RMK A01 T00471033  RH  056%=      5-min Rain = 0
KCO1 191157Z 32008KT 05/M03 A3029 RMK A01 T00471033  RH  056%=      5-min Rain = 0
KCO1 191158Z 31010KT 05/M03 A3029 RMK A01 T00461034  RH  056%=      5-min Rain = 0
KCO1 191159Z 32009KT 05/M03 A3029 RMK A01 T00461034  RH  056%=      5-min Rain = 0
KCO1 191200Z 32009KT 05/M03 A3029 RMK A01 T00461034  RH  056%=      5-min Rain = 0
KCO1 191201Z 32009KT 05/M04 A3029 RMK A01 T00461035  RH  056%=      5-min Rain = 0
KCO1 191202Z 32007KT 05/M03 A3029 RMK A01 T00461034  RH  056%=      5-min Rain = 0
KCO1 191203Z 31007KT 05/M04 A3029 RMK A01 T00461035  RH  056%=      5-min Rain = 0
KCO1 191204Z 31007KT 05/M04 A3029 RMK A01 T00461035  RH  056%=      5-min Rain = 0
KCO1 191205Z 31007KT 05/M04 A3029 RMK A01 T00461035  RH  056%=      5-min Rain = 0
KCO1 191206Z 31007KT 05/M04 A303 RMK A01 T00461035  RH  056%=      5-min Rain = 0
KCO1 191207Z 30008KT 05/M04 A3029 RMK A01 T00451035  RH  056%=      5-min Rain = 0
KCO1 191208Z 30007KT 05/M04 A3029 RMK A01 T00451035  RH  056%=      5-min Rain = 0
KCO1 191209Z 30007KT 04/M04 A303 RMK A01 T00441035  RH  056%=      5-min Rain = 0
KCO1 191210Z 30006KT 04/M04 A303 RMK A01 T00441035  RH  056%=      5-min Rain = 0
KCO1 191211Z 30006KT 04/M04 A303 RMK A01 T00431036  RH  057%=      5-min Rain = 0
KCO1 191212Z 29006KT 04/M04 A303 RMK A01 T00421036  RH  057%=      5-min Rain = 0
KCO1 191213Z 30006KT 04/M04 A303 RMK A01 T00411035  RH  058%=      5-min Rain = 0
KCO1 191214Z 30006KT 04/M04 A303 RMK A01 T00411035  RH  058%=      5-min Rain = 0
KCO1 191215Z 30007KT 04/M04 A303 RMK A01 T00401035  RH  058%=      5-min Rain = 0
KCO1 191216Z 29008KT 04/M04 A303 RMK A01 T00401035  RH  058%=      5-min Rain = 0
KCO1 191217Z 29007KT 04/M04 A303 RMK A01 T00401036  RH  058%=      5-min Rain = 0
KCO1 191218Z 29008KT 04/M04 A3031 RMK A01 T00411036  RH  057%=      5-min Rain = 0
KCO1 191219Z 29008KT 04/M04 A303 RMK A01 T00411036  RH  057%=      5-min Rain = 0
KCO1 191220Z 29008KT 04/M04 A303 RMK A01 T00411036  RH  057%=      5-min Rain = 0
KCO1 191221Z 30008KT 04/M04 A3031 RMK A01 T00411036  RH  057%=      5-min Rain = 0
KCO1 191222Z 29007KT 04/M04 A3031 RMK A01 T00411036  RH  057%=      5-min Rain = 0
KCO1 191223Z 29007KT 04/M04 A3031 RMK A01 T00421036  RH  057%=      5-min Rain = 0
KCO1 191224Z 30007KT 04/M04 A3031 RMK A01 T00421036  RH  057%=      5-min Rain = 0
KCO1 191225Z 30006KT 04/M04 A3031 RMK A01 T00421036  RH  057%=      5-min Rain = 0
KCO1 191226Z 30007KT 04/M04 A3031 RMK A01 T00411037  RH  057%=      5-min Rain = 0
KCO1 191227Z 30007KT 04/M04 A3031 RMK A01 T00411037  RH  057%=      5-min Rain = 0
KCO1 191228Z 30007KT 04/M04 A3031 RMK A01 T00401037  RH  057%=      5-min Rain = 0
KCO1 191229Z 30008KT 04/M04 A3031 RMK A01 T00401037  RH  057%=      5-min Rain = 0
KCO1 191230Z 30007KT 04/M04 A3031 RMK A01 T00401037  RH  057%=      5-min Rain = 0
KCO1 191231Z 30008KT 04/M04 A3031 RMK A01 T00411037  RH  057%=      5-min Rain = 0
KCO1 191232Z 29007KT 04/M04 A3031 RMK A01 T00411037  RH  057%=      5-min Rain = 0
KCO1 191233Z 30007KT 04/M04 A3031 RMK A01 T00411037  RH  057%=      5-min Rain = 0
KCO1 191234Z 30009KT 04/M04 A3031 RMK A01 T00411037  RH  057%=      5-min Rain = 0
KCO1 191235Z 30008KT 04/M04 A3031 RMK A01 T00411037  RH  057%=      5-min Rain = 0
KCO1 191236Z 31008KT 04/M04 A3032 RMK A01 T00421037  RH  056%=      5-min Rain = 0
KCO1 191237Z 30008KT 04/M04 A3032 RMK A01 T00421037  RH  056%=      5-min Rain = 0
KCO1 191238Z 30008KT 04/M04 A3032 RMK A01 T00421037  RH  056%=      5-min Rain = 0
KCO1 191239Z 31009KT 04/M04 A3032 RMK A01 T00421038  RH  056%=      5-min Rain = 0
KCO1 191240Z 31009KT 04/M04 A3032 RMK A01 T00431037  RH  056%=      5-min Rain = 0
KCO1 191241Z 31009KT 04/M04 A3032 RMK A01 T00441037  RH  056%=      5-min Rain = 0
KCO1 191242Z 31009KT 05/M04 A3032 RMK A01 T00451038  RH  055%=      5-min Rain = 0
KCO1 191243Z 31009KT 05/M04 A3032 RMK A01 T00451038  RH  055%=      5-min Rain = 0
KCO1 191244Z 32008KT 05/M04 A3032 RMK A01 T00461038  RH  055%=      5-min Rain = 0
KCO1 191245Z 31008KT 05/M04 A3032 RMK A01 T00461038  RH  054%=      5-min Rain = 0
KCO1 191246Z 32008KT 05/M04 A3032 RMK A01 T00461038  RH  054%=      5-min Rain = 0
KCO1 191247Z 31009KT 05/M04 A3032 RMK A01 T00461038  RH  054%=      5-min Rain = 0
KCO1 191248Z 31008KT 05/M04 A3032 RMK A01 T00461038  RH  054%=      5-min Rain = 0
KCO1 191249Z 31008KT 05/M04 A3032 RMK A01 T00471038  RH  054%=      5-min Rain = 0
KCO1 191250Z 31008KT 05/M04 A3032 RMK A01 T00461038  RH  054%=      5-min Rain = 0
KCO1 191251Z 31010KT 05/M04 A3032 RMK A01 T00471038  RH  054%=      5-min Rain = 0
KCO1 191252Z 31009KT 05/M04 A3032 RMK A01 T00461039  RH  054%=      5-min Rain = 0
KCO1 191253Z 31007KT 05/M04 A3032 RMK A01 T00471039  RH  054%=      5-min Rain = 0
KCO1 191254Z 31007KT 05/M04 A3033 RMK A01 T00461039  RH  054%=      5-min Rain = 0
KCO1 191255Z 31007KT 05/M04 A3032 RMK A01 T00451039  RH  054%=      5-min Rain = 0
KCO1 191256Z 31007KT 05/M04 A3032 RMK A01 T00451039  RH  054%=      5-min Rain = 0
KCO1 191257Z 30007KT 04/M04 A3032 RMK A01 T00441039  RH  055%=      5-min Rain = 0
KCO1 191258Z 30008KT 04/M04 A3033 RMK A01 T00441039  RH  055%=      5-min Rain = 0
KCO1 191259Z 30007KT 04/M04 A3033 RMK A01 T00441039  RH  055%=      5-min Rain = 0
KCO1 191300Z 30008KT 04/M04 A3033 RMK A01 T00441039  RH  055%=      5-min Rain = 0
KCO1 191301Z 30006KT 05/M04 A3033 RMK A01 T00451039  RH  055%=      5-min Rain = 0
KCO1 191302Z 29006KT 05/M04 A3033 RMK A01 T00451039  RH  055%=      5-min Rain = 0
KCO1 191303Z 30007KT 05/M04 A3033 RMK A01 T00451039  RH  055%=      5-min Rain = 0
KCO1 191304Z 29007KT 04/M04 A3033 RMK A01 T00441039  RH  055%=      5-min Rain = 0
KCO1 191305Z 29007KT 04/M04 A3033 RMK A01 T00441039  RH  055%=      5-min Rain = 0
KCO1 191306Z 29007KT 04/M04 A3033 RMK A01 T00441039  RH  055%=      5-min Rain = 0
KCO1 191307Z 29007KT 04/M04 A3033 RMK A01 T00431039  RH  055%=      5-min Rain = 0
KCO1 191308Z 28007KT 04/M04 A3033 RMK A01 T00431039  RH  055%=      5-min Rain = 0
KCO1 191309Z 28008KT 04/M04 A3033 RMK A01 T00421039  RH  055%=      5-min Rain = 0
KCO1 191310Z 28009KT 04/M04 A3033 RMK A01 T00411039  RH  056%=      5-min Rain = 0
KCO1 191311Z 28009KT 04/M04 A3033 RMK A01 T00411039  RH  056%=      5-min Rain = 0
KCO1 191312Z 28008KT 04/M04 A3033 RMK A01 T00421039  RH  056%=      5-min Rain = 0
KCO1 191313Z 28008KT 04/M04 A3033 RMK A01 T00421039  RH  056%=      5-min Rain = 0
KCO1 191314Z 28007KT 04/M04 A3034 RMK A01 T00431039  RH  055%=      5-min Rain = 0
KCO1 191315Z 28007KT 04/M04 A3034 RMK A01 T00431039  RH  055%=      5-min Rain = 0
KCO1 191316Z 28005KT 04/M04 A3034 RMK A01 T00421039  RH  056%=      5-min Rain = 0
KCO1 191317Z 27006KT 04/M04 A3034 RMK A01 T00411039  RH  056%=      5-min Rain = 0
KCO1 191318Z 27008KT 04/M04 A3034 RMK A01 T00401039  RH  056%=      5-min Rain = 0
KCO1 191319Z 27009KT 04/M04 A3034 RMK A01 T00401039  RH  057%=      5-min Rain = 0
KCO1 191320Z 27008KT 04/M04 A3034 RMK A01 T00411038  RH  057%=      5-min Rain = 0
KCO1 191321Z 28009KT 04/M04 A3034 RMK A01 T00411037  RH  056%=      5-min Rain = 0
KCO1 191322Z 27007KT 04/M04 A3034 RMK A01 T00421037  RH  056%=      5-min Rain = 0
KCO1 191323Z 27007KT 04/M04 A3034 RMK A01 T00431037  RH  056%=      5-min Rain = 0
KCO1 191324Z 28007KT 04/M04 A3035 RMK A01 T00431037  RH  056%=      5-min Rain = 0
KCO1 191325Z 28008KT 04/M04 A3035 RMK A01 T00431037  RH  056%=      5-min Rain = 0
KCO1 191326Z 27007KT 04/M04 A3035 RMK A01 T00431036  RH  056%=      5-min Rain = 0
KCO1 191327Z 27007KT 04/M04 A3035 RMK A01 T00441036  RH  056%=      5-min Rain = 0
KCO1 191328Z 27008KT 04/M04 A3035 RMK A01 T00441036  RH  056%=      5-min Rain = 0
KCO1 191329Z 27007KT 04/M04 A3035 RMK A01 T00441036  RH  056%=      5-min Rain = 0
KCO1 191330Z 28006KT 04/M04 A3035 RMK A01 T00441037  RH  056%=      5-min Rain = 0
KCO1 191331Z 28006KT 04/M04 A3035 RMK A01 T00441036  RH  056%=      5-min Rain = 0
KCO1 191332Z 28006KT 04/M04 A3035 RMK A01 T00441036  RH  056%=      5-min Rain = 0
KCO1 191333Z 28006KT 04/M04 A3035 RMK A01 T00431037  RH  056%=      5-min Rain = 0
KCO1 191334Z 27007KT 04/M04 A3035 RMK A01 T00431036  RH  056%=      5-min Rain = 0
KCO1 191335Z 28006KT 04/M04 A3035 RMK A01 T00441036  RH  056%=      5-min Rain = 0
KCO1 191336Z 28005KT 04/M04 A3035 RMK A01 T00441037  RH  056%=      5-min Rain = 0
KCO1 191337Z 28005KT 04/M04 A3035 RMK A01 T00441037  RH  056%=      5-min Rain = 0
KCO1 191338Z 28004KT 04/M04 A3035 RMK A01 T00441037  RH  056%=      5-min Rain = 0
KCO1 191339Z 28005KT 04/M04 A3035 RMK A01 T00431037  RH  056%=      5-min Rain = 0
KCO1 191340Z 28005KT 04/M04 A3035 RMK A01 T00421037  RH  056%=      5-min Rain = 0
KCO1 191341Z 28006KT 04/M04 A3035 RMK A01 T00411037  RH  057%=      5-min Rain = 0
KCO1 191342Z 26005KT 04/M04 A3035 RMK A01 T00411036  RH  057%=      5-min Rain = 0
KCO1 191343Z 24005KT 04/M04 A3036 RMK A01 T00401037  RH  057%=      5-min Rain = 0
KCO1 191344Z 24005KT 04/M04 A3036 RMK A01 T00381038  RH  058%=      5-min Rain = 0
KCO1 191345Z 24006KT 04/M04 A3036 RMK A01 T00371038  RH  058%=      5-min Rain = 0
KCO1 191346Z 24006KT 04/M04 A3036 RMK A01 T00351039  RH  059%=      5-min Rain = 0
KCO1 191347Z 25006KT 03/M04 A3036 RMK A01 T00331039  RH  060%=      5-min Rain = 0
KCO1 191348Z 25006KT 03/M04 A3036 RMK A01 T00321038  RH  060%=      5-min Rain = 0
KCO1 191349Z 25005KT 03/M04 A3036 RMK A01 T00311038  RH  060%=      5-min Rain = 0
KCO1 191350Z 25005KT 03/M04 A3036 RMK A01 T00311038  RH  061%=      5-min Rain = 0
KCO1 191351Z 25006KT 03/M04 A3036 RMK A01 T00301037  RH  061%=      5-min Rain = 0
KCO1 191352Z 25007KT 03/M04 A3036 RMK A01 T00301038  RH  061%=      5-min Rain = 0
KCO1 191353Z 26007KT 03/M04 A3036 RMK A01 T00291037  RH  061%=      5-min Rain = 0
KCO1 191354Z 26007KT 03/M04 A3036 RMK A01 T00281038  RH  062%=      5-min Rain = 0
KCO1 191355Z 26007KT 03/M04 A3036 RMK A01 T00281037  RH  062%=      5-min Rain = 0
KCO1 191356Z 26007KT 03/M04 A3036 RMK A01 T00281037  RH  063%=      5-min Rain = 0
KCO1 191357Z 25007KT 03/M04 A3036 RMK A01 T00281036  RH  063%=      5-min Rain = 0
KCO1 191358Z 26006KT 03/M04 A3036 RMK A01 T00291036  RH  062%=      5-min Rain = 0
KCO1 191359Z 26005KT 03/M04 A3036 RMK A01 T00291036  RH  062%=      5-min Rain = 0
KCO1 191400Z 26006KT 03/M04 A3036 RMK A01 T00291036  RH  062%=      5-min Rain = 0
KCO1 191401Z 26005KT 03/M04 A3036 RMK A01 T00291036  RH  062%=      5-min Rain = 0
KCO1 191402Z 25006KT 03/M04 A3036 RMK A01 T00291036  RH  062%=      5-min Rain = 0
KCO1 191403Z 26006KT 03/M04 A3037 RMK A01 T00291035  RH  063%=      5-min Rain = 0
KCO1 191404Z 25006KT 03/M04 A3037 RMK A01 T00301035  RH  062%=      5-min Rain = 0
KCO1 191405Z 25006KT 03/M04 A3037 RMK A01 T00301035  RH  062%=      5-min Rain = 0
KCO1 191406Z 24006KT 03/M04 A3037 RMK A01 T00301035  RH  062%=      5-min Rain = 0
KCO1 191407Z 25006KT 03/M03 A3037 RMK A01 T00311034  RH  062%=      5-min Rain = 0
KCO1 191408Z 24006KT 03/M03 A3037 RMK A01 T00311034  RH  062%=      5-min Rain = 0
KCO1 191409Z 24006KT 03/M03 A3037 RMK A01 T00321034  RH  062%=      5-min Rain = 0
KCO1 191410Z 24006KT 03/M03 A3037 RMK A01 T00321034  RH  062%=      5-min Rain = 0
KCO1 191411Z 24007KT 03/M03 A3037 RMK A01 T00321033  RH  062%=      5-min Rain = 0
KCO1 191412Z 24007KT 03/M03 A3037 RMK A01 T00331033  RH  062%=      5-min Rain = 0
KCO1 191413Z 24007KT 03/M03 A3037 RMK A01 T00331033  RH  062%=      5-min Rain = 0
KCO1 191414Z 24006KT 03/M03 A3037 RMK A01 T00341033  RH  062%=      5-min Rain = 0
KCO1 191415Z 25005KT 03/M03 A3037 RMK A01 T00341033  RH  062%=      5-min Rain = 0
KCO1 191416Z 26004KT 03/M03 A3037 RMK A01 T00341032  RH  062%=      5-min Rain = 0
KCO1 191417Z 26005KT 03/M03 A3037 RMK A01 T00341032  RH  062%=      5-min Rain = 0
KCO1 191418Z 26004KT 03/M03 A3037 RMK A01 T00341032  RH  062%=      5-min Rain = 0
KCO1 191419Z 26005KT 03/M03 A3038 RMK A01 T00341031  RH  062%=      5-min Rain = 0
KCO1 191420Z 26006KT 03/M03 A3038 RMK A01 T00341031  RH  063%=      5-min Rain = 0
KCO1 191421Z 26006KT 03/M03 A3038 RMK A01 T00341030  RH  063%=      5-min Rain = 0
KCO1 191422Z 26006KT 04/M03 A3038 RMK A01 T00351029  RH  063%=      5-min Rain = 0
KCO1 191423Z 26006KT 04/M03 A3038 RMK A01 T00361028  RH  063%=      5-min Rain = 0
KCO1 191424Z 26006KT 04/M03 A3038 RMK A01 T00361028  RH  063%=      5-min Rain = 0
KCO1 191425Z 26005KT 04/M03 A3038 RMK A01 T00371027  RH  063%=      5-min Rain = 0
KCO1 191426Z 26005KT 04/M03 A3038 RMK A01 T00381027  RH  063%=      5-min Rain = 0
KCO1 191427Z 26006KT 04/M03 A3038 RMK A01 T00381026  RH  063%=      5-min Rain = 0
KCO1 191428Z 26005KT 04/M03 A3038 RMK A01 T00391026  RH  063%=      5-min Rain = 0
KCO1 191429Z 26005KT 04/M03 A3038 RMK A01 T00391026  RH  062%=      5-min Rain = 0
KCO1 191430Z 26005KT 04/M03 A3038 RMK A01 T00401025  RH  063%=      5-min Rain = 0
KCO1 191431Z 26007KT 04/M03 A3038 RMK A01 T00401025  RH  063%=      5-min Rain = 0
KCO1 191432Z 27007KT 04/M02 A3038 RMK A01 T00411024  RH  063%=      5-min Rain = 0
KCO1 191433Z 26005KT 04/M02 A3038 RMK A01 T00421023  RH  063%=      5-min Rain = 0
KCO1 191434Z 26006KT 04/M02 A3038 RMK A01 T00431023  RH  062%=      5-min Rain = 0
KCO1 191435Z 26006KT 04/M02 A3038 RMK A01 T00441023  RH  062%=      5-min Rain = 0
KCO1 191436Z 26006KT 04/M02 A3038 RMK A01 T00441022  RH  062%=      5-min Rain = 0
KCO1 191437Z 26004KT 05/M02 A3038 RMK A01 T00451022  RH  062%=      5-min Rain = 0
KCO1 191438Z 27005KT 05/M02 A3038 RMK A01 T00451021  RH  062%=      5-min Rain = 0
KCO1 191439Z 26006KT 05/M02 A3038 RMK A01 T00461021  RH  062%=      5-min Rain = 0
KCO1 191440Z 27005KT 05/M02 A3038 RMK A01 T00471021  RH  061%=      5-min Rain = 0
KCO1 191441Z 27005KT 05/M02 A3038 RMK A01 T00481021  RH  061%=      5-min Rain = 0
KCO1 191442Z 27005KT 05/M02 A3038 RMK A01 T00491021  RH  061%=      5-min Rain = 0
KCO1 191443Z 27005KT 05/M02 A3038 RMK A01 T00491021  RH  060%=      5-min Rain = 0
KCO1 191444Z 27005KT 05/M02 A3038 RMK A01 T00501021  RH  060%=      5-min Rain = 0
KCO1 191445Z 26004KT 05/M02 A3038 RMK A01 T00501020  RH  060%=      5-min Rain = 0
KCO1 191446Z 26004KT 05/M02 A3038 RMK A01 T00511020  RH  060%=      5-min Rain = 0
KCO1 191447Z 25005KT 05/M02 A3038 RMK A01 T00521019  RH  060%=      5-min Rain = 0
KCO1 191448Z 25005KT 05/M02 A3038 RMK A01 T00531020  RH  060%=      5-min Rain = 0
KCO1 191449Z 25004KT 05/M02 A3038 RMK A01 T00531020  RH  059%=      5-min Rain = 0
KCO1 191450Z 25005KT 05/M02 A3038 RMK A01 T00541020  RH  059%=      5-min Rain = 0
KCO1 191451Z 25004KT 06/M02 A3038 RMK A01 T00551019  RH  059%=      5-min Rain = 0
KCO1 191452Z 25003KT 06/M02 A3039 RMK A01 T00561020  RH  058%=      5-min Rain = 0
KCO1 191453Z 25004KT 06/M02 A3038 RMK A01 T00571019  RH  058%=      5-min Rain = 0
KCO1 191454Z 23003KT 06/M02 A3038 RMK A01 T00581019  RH  058%=      5-min Rain = 0
KCO1 191455Z 24004KT 06/M02 A3038 RMK A01 T00591018  RH  057%=      5-min Rain = 0
KCO1 191456Z 25003KT 06/M02 A3039 RMK A01 T00601018  RH  057%=      5-min Rain = 0
KCO1 191457Z 25004KT 06/M02 A3039 RMK A01 T00601018  RH  057%=      5-min Rain = 0
KCO1 191458Z 25004KT 06/M02 A3039 RMK A01 T00611019  RH  057%=      5-min Rain = 0
KCO1 191459Z 25004KT 06/M02 A3039 RMK A01 T00611019  RH  057%=      5-min Rain = 0
KCO1 191500Z 25005KT 06/M02 A3039 RMK A01 T00611019  RH  057%=      5-min Rain = 0
KCO1 191501Z 26004KT 06/M02 A3039 RMK A01 T00611019  RH  057%=      5-min Rain = 0
KCO1 191502Z 26004KT 06/M02 A3039 RMK A01 T00621018  RH  057%=      5-min Rain = 0
KCO1 191503Z 26004KT 06/M02 A3039 RMK A01 T00631018  RH  056%=      5-min Rain = 0
KCO1 191504Z 26005KT 06/M02 A3039 RMK A01 T00641018  RH  056%=      5-min Rain = 0
KCO1 191505Z 26004KT 06/M02 A3039 RMK A01 T00641018  RH  056%=      5-min Rain = 0
KCO1 191506Z 26004KT 07/M02 A3039 RMK A01 T00651018  RH  055%=      5-min Rain = 0
KCO1 191507Z 26004KT 07/M02 A3039 RMK A01 T00661018  RH  055%=      5-min Rain = 0
KCO1 191508Z 27004KT 07/M02 A3039 RMK A01 T00661018  RH  055%=      5-min Rain = 0
KCO1 191509Z 26004KT 07/M02 A3039 RMK A01 T00671019  RH  054%=      5-min Rain = 0
KCO1 191510Z 26005KT 07/M02 A3039 RMK A01 T00681018  RH  054%=      5-min Rain = 0
KCO1 191511Z 28004KT 07/M02 A3039 RMK A01 T00691018  RH  054%=      5-min Rain = 0
KCO1 191512Z 29005KT 07/M02 A3039 RMK A01 T00701018  RH  053%=      5-min Rain = 0
KCO1 191513Z 28005KT 07/M02 A3039 RMK A01 T00721019  RH  052%=      5-min Rain = 0
KCO1 191514Z 29005KT 07/M02 A3039 RMK A01 T00741020  RH  051%=      5-min Rain = 0
KCO1 191515Z 29005KT 08/M02 A3039 RMK A01 T00761020  RH  051%=      5-min Rain = 0
KCO1 191516Z 29006KT 08/M02 A3039 RMK A01 T00771020  RH  050%=      5-min Rain = 0
KCO1 191517Z 29006KT 08/M02 A3039 RMK A01 T00781021  RH  050%=      5-min Rain = 0
KCO1 191518Z 29006KT 08/M02 A3039 RMK A01 T00781021  RH  049%=      5-min Rain = 0
KCO1 191519Z 29006KT 08/M02 A3039 RMK A01 T00791022  RH  049%=      5-min Rain = 0
KCO1 191520Z 28006KT 08/M02 A3039 RMK A01 T00801022  RH  049%=      5-min Rain = 0
KCO1 191521Z 29006KT 08/M02 A3039 RMK A01 T00801022  RH  048%=      5-min Rain = 0
KCO1 191522Z 29006KT 08/M02 A3039 RMK A01 T00801023  RH  048%=      5-min Rain = 0
KCO1 191523Z 27005KT 08/M02 A3039 RMK A01 T00801022  RH  048%=      5-min Rain = 0
KCO1 191524Z 28006KT 08/M02 A3039 RMK A01 T00821021  RH  048%=      5-min Rain = 0
KCO1 191525Z 27005KT 08/M02 A3039 RMK A01 T00821021  RH  048%=      5-min Rain = 0
KCO1 191526Z 28006KT 08/M02 A3039 RMK A01 T00831020  RH  048%=      5-min Rain = 0
KCO1 191527Z 28007KT 08/M02 A3039 RMK A01 T00831021  RH  048%=      5-min Rain = 0
KCO1 191528Z 28005KT 08/M02 A3039 RMK A01 T00831021  RH  048%=      5-min Rain = 0
KCO1 191529Z 27005KT 08/M02 A3039 RMK A01 T00841020  RH  048%=      5-min Rain = 0
KCO1 191530Z 27007KT 09/M02 A304 RMK A01 T00851021  RH  047%=      5-min Rain = 0
KCO1 191531Z 28006KT 09/M02 A304 RMK A01 T00851021  RH  047%=      5-min Rain = 0
KCO1 191532Z 28006KT 09/M02 A304 RMK A01 T00861020  RH  047%=      5-min Rain = 0
KCO1 191533Z 29007KT 09/M02 A304 RMK A01 T00871021  RH  047%=      5-min Rain = 0
KCO1 191534Z 29006KT 09/M02 A304 RMK A01 T00871021  RH  046%=      5-min Rain = 0
KCO1 191535Z 26006KT 09/M02 A304 RMK A01 T00881020  RH  047%=      5-min Rain = 0
KCO1 191536Z 26007KT 09/M02 A304 RMK A01 T00871021  RH  047%=      5-min Rain = 0
KCO1 191537Z 27006KT 09/M02 A304 RMK A01 T00861020  RH  047%=      5-min Rain = 0
KCO1 191538Z 28008KT 09/M02 A304 RMK A01 T00871020  RH  047%=      5-min Rain = 0
KCO1 191539Z 28008KT 09/M02 A304 RMK A01 T00881021  RH  046%=      5-min Rain = 0
KCO1 191540Z 29008KT 09/M02 A304 RMK A01 T00881022  RH  046%=      5-min Rain = 0
KCO1 191541Z 27007KT 09/M02 A304 RMK A01 T00881021  RH  046%=      5-min Rain = 0
KCO1 191542Z 27006KT 09/M02 A304 RMK A01 T00881021  RH  046%=      5-min Rain = 0
KCO1 191543Z 27007KT 09/M02 A304 RMK A01 T00881021  RH  046%=      5-min Rain = 0
KCO1 191544Z 28007KT 09/M02 A304 RMK A01 T00891019  RH  047%=      5-min Rain = 0
KCO1 191545Z 28009KT 09/M02 A304 RMK A01 T00901020  RH  046%=      5-min Rain = 0
KCO1 191546Z 29007KT 09/M02 A304 RMK A01 T00901021  RH  046%=      5-min Rain = 0
KCO1 191547Z 28007KT 09/M02 A304 RMK A01 T00901021  RH  046%=      5-min Rain = 0
KCO1 191548Z 29008KT 09/M02 A304 RMK A01 T00911019  RH  046%=      5-min Rain = 0
KCO1 191549Z 29007KT 09/M02 A304 RMK A01 T00911019  RH  046%=      5-min Rain = 0
KCO1 191550Z 29006KT 09/M02 A304 RMK A01 T00921020  RH  046%=      5-min Rain = 0
KCO1 191551Z 28006KT 09/M02 A304 RMK A01 T00921019  RH  046%=      5-min Rain = 0
KCO1 191552Z 29006KT 09/M02 A304 RMK A01 T00931020  RH  045%=      5-min Rain = 0
KCO1 191553Z 30007KT 09/M02 A304 RMK A01 T00931021  RH  045%=      5-min Rain = 0
KCO1 191554Z 31007KT 09/M02 A304 RMK A01 T00941023  RH  044%=      5-min Rain = 0
KCO1 191555Z 30008KT 09/M02 A304 RMK A01 T00941024  RH  044%=      5-min Rain = 0
KCO1 191556Z 29010KT 09/M03 A304 RMK A01 T00941025  RH  043%=      5-min Rain = 0
KCO1 191557Z 30012KT 09/M03 A304 RMK A01 T00941027  RH  043%=      5-min Rain = 0
KCO1 191558Z 31007KT 09/M03 A304 RMK A01 T00941026  RH  043%=      5-min Rain = 0
KCO1 191559Z 31009KT 10/M02 A304 RMK A01 T00951024  RH  043%=      5-min Rain = 0
KCO1 191600Z 31010KT 10/M03 A304 RMK A01 T00951025  RH  043%=      5-min Rain = 0
KCO1 191601Z 31009KT 09/M03 A304 RMK A01 T00941027  RH  042%=      5-min Rain = 0
KCO1 191602Z 31007KT 09/M03 A304 RMK A01 T00941027  RH  042%=      5-min Rain = 0
KCO1 191603Z 32008KT 09/M03 A304 RMK A01 T00941029  RH  042%=      5-min Rain = 0
KCO1 191604Z 32008KT 09/M03 A304 RMK A01 T00931029  RH  042%=      5-min Rain = 0
KCO1 191605Z 32008KT 09/M03 A304 RMK A01 T00941030  RH  042%=      5-min Rain = 0
KCO1 191606Z 32008KT 09/M03 A304 RMK A01 T00941032  RH  041%=      5-min Rain = 0
KCO1 191607Z 29008KT 10/M03 A3041 RMK A01 T00951029  RH  042%=      5-min Rain = 0
KCO1 191608Z 30008KT 10/M03 A3041 RMK A01 T00961027  RH  042%=      5-min Rain = 0
KCO1 191609Z 31009KT 10/M03 A3041 RMK A01 T00981025  RH  042%=      5-min Rain = 0
KCO1 191610Z 31008KT 10/M03 A3041 RMK A01 T01001026  RH  041%=      5-min Rain = 0
KCO1 191611Z 33009KT 10/M03 A3041 RMK A01 T01001029  RH  040%=      5-min Rain = 0
KCO1 191612Z 33007KT 10/M03 A3041 RMK A01 T00991032  RH  040%=      5-min Rain = 0
KCO1 191613Z 34009KT 10/M03 A3041 RMK A01 T00981030  RH  040%=      5-min Rain = 0
KCO1 191614Z 34007KT 10/M03 A3041 RMK A01 T00981034  RH  039%=      5-min Rain = 0
KCO1 191615Z 32005KT 10/M04 A3041 RMK A01 T00981035  RH  039%=      5-min Rain = 0
KCO1 191616Z 30008KT 10/M03 A3041 RMK A01 T00981032  RH  040%=      5-min Rain = 0
KCO1 191617Z 30007KT 10/M03 A3041 RMK A01 T01011028  RH  040%=      5-min Rain = 0
KCO1 191618Z 32009KT 10/M03 A3041 RMK A01 T01031029  RH  039%=      5-min Rain = 0
KCO1 191619Z 33007KT 10/M03 A3041 RMK A01 T01021031  RH  039%=      5-min Rain = 0
KCO1 191620Z 30007KT 10/M03 A3041 RMK A01 T01021029  RH  040%=      5-min Rain = 0
KCO1 191621Z 29007KT 10/M03 A3041 RMK A01 T01031028  RH  040%=      5-min Rain = 0
KCO1 191622Z 30008KT 10/M03 A3041 RMK A01 T01041028  RH  039%=      5-min Rain = 0
KCO1 191623Z 31008KT 11/M03 A3041 RMK A01 T01051030  RH  039%=      5-min Rain = 0
KCO1 191624Z 32007KT 11/M03 A3041 RMK A01 T01051030  RH  039%=      5-min Rain = 0
KCO1 191625Z 31009KT 11/M03 A3041 RMK A01 T01051032  RH  038%=      5-min Rain = 0
KCO1 191626Z 32007KT 10/M03 A3041 RMK A01 T01031034  RH  038%=      5-min Rain = 0
KCO1 191627Z 32005KT 10/M04 A3041 RMK A01 T01021036  RH  038%=      5-min Rain = 0
KCO1 191628Z 33006KT 10/M03 A3041 RMK A01 T01021033  RH  039%=      5-min Rain = 0
KCO1 191629Z 34008KT 10/M03 A3041 RMK A01 T01031032  RH  039%=      5-min Rain = 0
KCO1 191630Z 34007KT 10/M03 A3041 RMK A01 T01031034  RH  038%=      5-min Rain = 0
KCO1 191631Z 35006KT 10/M03 A3041 RMK A01 T01041034  RH  038%=      5-min Rain = 0
KCO1 191632Z 32010KT 10/M03 A3041 RMK A01 T01041032  RH  038%=      5-min Rain = 0
KCO1 191633Z 33009KT 10/M03 A3041 RMK A01 T01041033  RH  038%=      5-min Rain = 0
KCO1 191634Z 32008KT 10/M03 A3041 RMK A01 T01041033  RH  038%=      5-min Rain = 0
KCO1 191635Z 32008KT 10/M03 A3041 RMK A01 T01031033  RH  038%=      5-min Rain = 0
KCO1 191636Z 32014KT 10/M03 A3041 RMK A01 T01031034  RH  038%=      5-min Rain = 0
KCO1 191637Z 32011KT 10/M04 A3041 RMK A01 T01031036  RH  037%=      5-min Rain = 0
KCO1 191638Z 33011KT 10/M04 A3041 RMK A01 T01041036  RH  037%=      5-min Rain = 0
KCO1 191639Z 33009KT 10/M04 A3041 RMK A01 T01041038  RH  037%=      5-min Rain = 0
KCO1 191640Z 34009KT 11/M04 A3041 RMK A01 T01051036  RH  037%=      5-min Rain = 0
KCO1 191641Z 34009KT 11/M04 A3041 RMK A01 T01061035  RH  037%=      5-min Rain = 0
KCO1 191642Z 35009KT 11/M03 A3041 RMK A01 T01051034  RH  037%=      5-min Rain = 0
KCO1 191643Z 35011KT 11/M03 A3041 RMK A01 T01071033  RH  037%=      5-min Rain = 0
KCO1 191644Z 34013KT 11/M03 A3041 RMK A01 T01071034  RH  037%=      5-min Rain = 0
KCO1 191645Z 35011KT 11/M04 A3041 RMK A01 T01061036  RH  037%=      5-min Rain = 0
KCO1 191646Z 35012KT 11/M03 A3041 RMK A01 T01051034  RH  038%=      5-min Rain = 0
KCO1 191647Z 36009KT 11/M03 A3041 RMK A01 T01061034  RH  037%=      5-min Rain = 0
KCO1 191648Z 35011KT 11/M03 A3041 RMK A01 T01061033  RH  037%=      5-min Rain = 0
KCO1 191649Z 34012KT 11/M03 A3041 RMK A01 T01071034  RH  037%=      5-min Rain = 0
KCO1 191650Z 34010KT 11/M04 A3041 RMK A01 T01061038  RH  036%=      5-min Rain = 0
KCO1 191651Z 34011KT 11/M04 A3041 RMK A01 T01051038  RH  036%=      5-min Rain = 0
KCO1 191652Z 34011KT 11/M04 A3041 RMK A01 T01051036  RH  037%=      5-min Rain = 0
KCO1 191653Z 00009KT 11/M03 A3041 RMK A01 T01061034  RH  037%=      5-min Rain = 0
KCO1 191654Z 00007KT 11/M03 A3041 RMK A01 T01071033  RH  037%=      5-min Rain = 0
KCO1 191655Z 35009KT 11/M03 A3041 RMK A01 T01091030  RH  038%=      5-min Rain = 0
KCO1 191656Z 34013KT 11/M03 A3041 RMK A01 T01111033  RH  036%=      5-min Rain = 0
KCO1 191657Z 35010KT 11/M04 A3041 RMK A01 T01091037  RH  036%=      5-min Rain = 0
KCO1 191658Z 33008KT 11/M04 A3041 RMK A01 T01081036  RH  036%=      5-min Rain = 0
KCO1 191659Z 35008KT 11/M04 A3041 RMK A01 T01081035  RH  036%=      5-min Rain = 0
KCO1 191700Z 35007KT 11/M04 A3041 RMK A01 T01081036  RH  036%=      5-min Rain = 0
KCO1 191701Z 36008KT 11/M04 A3041 RMK A01 T01071036  RH  036%=      5-min Rain = 0
KCO1 191702Z 00010KT 11/M04 A3041 RMK A01 T01061035  RH  037%=      5-min Rain = 0
KCO1 191703Z 01013KT 11/M03 A3041 RMK A01 T01071034  RH  037%=      5-min Rain = 0
KCO1 191704Z 00010KT 11/M03 A3041 RMK A01 T01081034  RH  037%=      5-min Rain = 0
KCO1 191705Z 01008KT 11/M03 A3041 RMK A01 T01081033  RH  037%=      5-min Rain = 0
KCO1 191706Z 00009KT 11/M03 A3041 RMK A01 T01091031  RH  037%=      5-min Rain = 0
KCO1 191707Z 34009KT 11/M03 A3041 RMK A01 T01111032  RH  037%=      5-min Rain = 0
KCO1 191708Z 33009KT 11/M03 A3041 RMK A01 T01111032  RH  037%=      5-min Rain = 0
KCO1 191709Z 33009KT 11/M03 A3041 RMK A01 T01131031  RH  036%=      5-min Rain = 0
KCO1 191710Z 33011KT 11/M03 A3041 RMK A01 T01121033  RH  036%=      5-min Rain = 0
KCO1 191711Z 33009KT 11/M03 A3041 RMK A01 T01111034  RH  036%=      5-min Rain = 0
KCO1 191712Z 34011KT 11/M03 A3041 RMK A01 T01101033  RH  036%=      5-min Rain = 0
KCO1 191713Z 34010KT 11/M04 A3041 RMK A01 T01101035  RH  036%=      5-min Rain = 0
KCO1 191714Z 33009KT 11/M04 A3041 RMK A01 T01091035  RH  036%=      5-min Rain = 0
KCO1 191715Z 34008KT 11/M03 A3041 RMK A01 T01091033  RH  037%=      5-min Rain = 0
KCO1 191716Z 35006KT 11/M03 A3041 RMK A01 T01101034  RH  036%=      5-min Rain = 0
KCO1 191717Z 35006KT 11/M03 A3041 RMK A01 T01111033  RH  036%=      5-min Rain = 0
KCO1 191718Z 33006KT 11/M03 A3041 RMK A01 T01121032  RH  036%=      5-min Rain = 0
KCO1 191719Z 00009KT 11/M03 A3041 RMK A01 T01141030  RH  036%=      5-min Rain = 0
KCO1 191720Z 00010KT 12/M03 A3041 RMK A01 T01151029  RH  036%=      5-min Rain = 0
KCO1 191721Z 33011KT 12/M03 A3041 RMK A01 T01161030  RH  036%=      5-min Rain = 0
KCO1 191722Z 33010KT 12/M03 A3041 RMK A01 T01161033  RH  035%=      5-min Rain = 0
KCO1 191723Z 35009KT 12/M03 A3041 RMK A01 T01161032  RH  035%=      5-min Rain = 0
KCO1 191724Z 01010KT 12/M04 A3041 RMK A01 T01151035  RH  035%=      5-min Rain = 0
KCO1 191725Z 36011KT 12/M03 A3041 RMK A01 T01151033  RH  035%=      5-min Rain = 0
KCO1 191726Z 35008KT 12/M03 A3041 RMK A01 T01151034  RH  035%=      5-min Rain = 0
KCO1 191727Z 35008KT 12/M03 A3041 RMK A01 T01151034  RH  035%=      5-min Rain = 0
KCO1 191728Z 33011KT 12/M03 A3041 RMK A01 T01161033  RH  035%=      5-min Rain = 0
KCO1 191729Z 34009KT 12/M04 A3041 RMK A01 T01161035  RH  035%=      5-min Rain = 0
KCO1 191730Z 34007KT 11/M04 A3041 RMK A01 T01141036  RH  035%=      5-min Rain = 0
KCO1 191731Z 33009KT 11/M04 A3041 RMK A01 T01131036  RH  035%=      5-min Rain = 0
KCO1 191732Z 33008KT 11/M04 A3041 RMK A01 T01111037  RH  035%=      5-min Rain = 0
KCO1 191733Z 35008KT 11/M04 A3041 RMK A01 T01111035  RH  036%=      5-min Rain = 0
KCO1 191734Z 34007KT 11/M03 A3041 RMK A01 T01121034  RH  036%=      5-min Rain = 0
KCO1 191735Z 33009KT 11/M03 A304 RMK A01 T01141032  RH  036%=      5-min Rain = 0
KCO1 191736Z 35009KT 12/M03 A3041 RMK A01 T01151033  RH  035%=      5-min Rain = 0
KCO1 191737Z 01008KT 12/M03 A304 RMK A01 T01151033  RH  035%=      5-min Rain = 0
KCO1 191738Z 35009KT 12/M03 A3041 RMK A01 T01171032  RH  035%=      5-min Rain = 0
KCO1 191739Z 34009KT 12/M04 A304 RMK A01 T01181035  RH  034%=      5-min Rain = 0
KCO1 191740Z 34008KT 12/M04 A304 RMK A01 T01181036  RH  034%=      5-min Rain = 0
KCO1 191741Z 01008KT 12/M04 A304 RMK A01 T01161037  RH  034%=      5-min Rain = 0
KCO1 191742Z 01009KT 12/M03 A304 RMK A01 T01161034  RH  035%=      5-min Rain = 0
KCO1 191743Z 35010KT 12/M03 A304 RMK A01 T01191033  RH  034%=      5-min Rain = 0
KCO1 191744Z 33012KT 12/M04 A304 RMK A01 T01201036  RH  033%=      5-min Rain = 0
KCO1 191745Z 33012KT 12/M04 A304 RMK A01 T01191039  RH  033%=      5-min Rain = 0
KCO1 191746Z 34012KT 12/M04 A304 RMK A01 T01171041  RH  033%=      5-min Rain = 0
KCO1 191747Z 35007KT 12/M04 A304 RMK A01 T01161038  RH  034%=      5-min Rain = 0
KCO1 191748Z 36005KT 12/M04 A304 RMK A01 T01181035  RH  034%=      5-min Rain = 0
KCO1 191749Z 36005KT 12/M04 A304 RMK A01 T01201035  RH  034%=      5-min Rain = 0
KCO1 191750Z 36008KT 12/M03 A304 RMK A01 T01211034  RH  034%=      5-min Rain = 0
KCO1 191751Z 34010KT 12/M04 A304 RMK A01 T01211036  RH  033%=      5-min Rain = 0
KCO1 191752Z 35008KT 12/M04 A304 RMK A01 T01191041  RH  033%=      5-min Rain = 0
KCO1 191753Z 32009KT 12/M04 A304 RMK A01 T01171039  RH  033%=      5-min Rain = 0
KCO1 191754Z 34009KT 12/M04 A304 RMK A01 T01171039  RH  033%=      5-min Rain = 0
KCO1 191755Z 00011KT 12/M04 A304 RMK A01 T01191036  RH  034%=      5-min Rain = 0
KCO1 191756Z 36010KT 12/M04 A304 RMK A01 T01191038  RH  033%=      5-min Rain = 0
KCO1 191757Z 00008KT 12/M04 A304 RMK A01 T01201037  RH  033%=      5-min Rain = 0
KCO1 191758Z 35007KT 12/M04 A304 RMK A01 T01201038  RH  033%=      5-min Rain = 0
KCO1 191759Z 35009KT 12/M04 A304 RMK A01 T01191039  RH  033%=      5-min Rain = 0
KCO1 191800Z 36008KT 12/M04 A304 RMK A01 T01181038  RH  033%=      5-min Rain = 0
KCO1 191801Z 35008KT 12/M04 A3039 RMK A01 T01191038  RH  033%=      5-min Rain = 0
KCO1 191802Z 36007KT 12/M04 A3039 RMK A01 T01181039  RH  033%=      5-min Rain = 0
KCO1 191803Z 35008KT 12/M04 A3039 RMK A01 T01181038  RH  033%=      5-min Rain = 0
KCO1 191804Z 34008KT 12/M04 A3039 RMK A01 T01191036  RH  034%=      5-min Rain = 0
KCO1 191805Z 34009KT 12/M04 A3039 RMK A01 T01211035  RH  034%=      5-min Rain = 0
KCO1 191806Z 34007KT 12/M04 A3039 RMK A01 T01221036  RH  033%=      5-min Rain = 0
KCO1 191807Z 35006KT 12/M04 A3039 RMK A01 T01211038  RH  033%=      5-min Rain = 0
KCO1 191808Z 00007KT 12/M04 A3039 RMK A01 T01201038  RH  033%=      5-min Rain = 0
KCO1 191809Z 33005KT 12/M04 A3039 RMK A01 T01191039  RH  033%=      5-min Rain = 0
KCO1 191810Z 36005KT 12/M04 A3039 RMK A01 T01181037  RH  034%=      5-min Rain = 0
KCO1 191811Z 01010KT 12/M03 A3039 RMK A01 T01201034  RH  034%=      5-min Rain = 0
KCO1 191812Z 00008KT 12/M03 A3039 RMK A01 T01221034  RH  034%=      5-min Rain = 0
KCO1 191813Z 02007KT 12/M04 A3039 RMK A01 T01231035  RH  033%=      5-min Rain = 0
KCO1 191814Z 00007G13KT 13/M03 A3039 RMK A01 T01251032  RH  033%=      5-min Rain = 0
KCO1 191815Z 34011KT 13/M03 A3039 RMK A01 T01261034  RH  033%=      5-min Rain = 0
KCO1 191816Z 33012KT 13/M04 A3039 RMK A01 T01251037  RH  032%=      5-min Rain = 0
KCO1 191817Z 34009KT 12/M04 A3039 RMK A01 T01231037  RH  032%=      5-min Rain = 0
KCO1 191818Z 34010KT 12/M04 A3039 RMK A01 T01241037  RH  032%=      5-min Rain = 0
KCO1 191819Z 35008KT 12/M04 A3039 RMK A01 T01221040  RH  032%=      5-min Rain = 0
KCO1 191820Z 36008KT 12/M04 A3039 RMK A01 T01211039  RH  032%=      5-min Rain = 0
KCO1 191821Z 36009KT 12/M04 A3039 RMK A01 T01201038  RH  033%=      5-min Rain = 0
KCO1 191822Z 33010KT 12/M04 A3039 RMK A01 T01221036  RH  033%=      5-min Rain = 0
KCO1 191823Z 33008KT 12/M04 A3039 RMK A01 T01221038  RH  032%=      5-min Rain = 0
KCO1 191824Z 32007KT 12/M04 A3039 RMK A01 T01211039  RH  032%=      5-min Rain = 0
KCO1 191825Z 30006KT 12/M04 A3039 RMK A01 T01221036  RH  033%=      5-min Rain = 0
KCO1 191826Z 33006KT 13/M04 A3039 RMK A01 T01251037  RH  032%=      5-min Rain = 0
KCO1 191827Z 02010KT 13/M04 A3039 RMK A01 T01251036  RH  032%=      5-min Rain = 0
KCO1 191828Z 01010KT 13/M04 A3039 RMK A01 T01251038  RH  032%=      5-min Rain = 0
KCO1 191829Z 02010KT 12/M04 A3039 RMK A01 T01241038  RH  032%=      5-min Rain = 0
KCO1 191830Z 01008KT 12/M04 A3039 RMK A01 T01241039  RH  032%=      5-min Rain = 0
KCO1 191831Z 00008KT 12/M04 A3039 RMK A01 T01231040  RH  032%=      5-min Rain = 0
KCO1 191832Z 00005G10KT 12/M04 A3039 RMK A01 T01221040  RH  032%=      5-min Rain = 0
KCO1 191833Z 01010KT 12/M04 A3039 RMK A01 T01221039  RH  032%=      5-min Rain = 0
KCO1 191834Z 00008KT 12/M04 A3039 RMK A01 T01231037  RH  032%=      5-min Rain = 0
KCO1 191835Z 01006KT 12/M04 A3038 RMK A01 T01241039  RH  032%=      5-min Rain = 0
KCO1 191836Z 34004KT 12/M04 A3038 RMK A01 T01241039  RH  032%=      5-min Rain = 0
KCO1 191837Z 00006KT 12/M04 A3038 RMK A01 T01241037  RH  032%=      5-min Rain = 0
KCO1 191838Z 01004KT 13/M04 A3038 RMK A01 T01261037  RH  032%=      5-min Rain = 0
KCO1 191839Z 00005KT 13/M04 A3038 RMK A01 T01261037  RH  032%=      5-min Rain = 0
KCO1 191840Z 00008KT 13/M04 A3038 RMK A01 T01281035  RH  032%=      5-min Rain = 0
KCO1 191841Z 33009KT 13/M04 A3038 RMK A01 T01291037  RH  031%=      5-min Rain = 0
KCO1 191842Z 33005KT 13/M04 A3038 RMK A01 T01261040  RH  031%=      5-min Rain = 0
KCO1 191843Z 32004KT 12/M04 A3038 RMK A01 T01241040  RH  032%=      5-min Rain = 0
KCO1 191844Z 35007KT 12/M04 A3038 RMK A01 T01241039  RH  032%=      5-min Rain = 0
KCO1 191845Z 33006KT 13/M04 A3038 RMK A01 T01251036  RH  032%=      5-min Rain = 0
KCO1 191846Z 33004KT 13/M04 A3038 RMK A01 T01271040  RH  031%=      5-min Rain = 0
KCO1 191847Z 34006KT 13/M04 A3038 RMK A01 T01261039  RH  032%=      5-min Rain = 0
KCO1 191848Z 35007KT 13/M04 A3037 RMK A01 T01271035  RH  032%=      5-min Rain = 0
KCO1 191849Z 00007KT 13/M04 A3038 RMK A01 T01291036  RH  031%=      5-min Rain = 0
KCO1 191850Z 01006KT 13/M04 A3037 RMK A01 T01291038  RH  031%=      5-min Rain = 0
KCO1 191851Z 36007KT 13/M04 A3037 RMK A01 T01291036  RH  031%=      5-min Rain = 0
KCO1 191852Z 35008KT 13/M04 A3037 RMK A01 T01301037  RH  031%=      5-min Rain = 0
KCO1 191853Z 01006KT 13/M04 A3037 RMK A01 T01281040  RH  031%=      5-min Rain = 0
KCO1 191854Z 03005KT 13/M04 A3037 RMK A01 T01271039  RH  031%=      5-min Rain = 0
KCO1 191855Z 06002KT 13/M04 A3037 RMK A01 T01261042  RH  031%=      5-min Rain = 0
KCO1 191856Z 02002KT 13/M04 A3037 RMK A01 T01261040  RH  031%=      5-min Rain = 0
KCO1 191857Z 32007KT 13/M04 A3037 RMK A01 T01271038  RH  031%=      5-min Rain = 0
KCO1 191858Z 32005KT 13/M04 A3037 RMK A01 T01281039  RH  031%=      5-min Rain = 0
KCO1 191859Z 35003KT 13/M04 A3037 RMK A01 T01281038  RH  031%=      5-min Rain = 0
KCO1 191900Z 31003KT 13/M04 A3037 RMK A01 T01291038  RH  031%=      5-min Rain = 0
KCO1 191901Z 34005KT 13/M04 A3037 RMK A01 T01301038  RH  031%=      5-min Rain = 0
KCO1 191902Z 34003KT 13/M04 A3036 RMK A01 T01301040  RH  030%=      5-min Rain = 0
KCO1 191903Z 36004KT 13/M04 A3036 RMK A01 T01291039  RH  031%=      5-min Rain = 0
KCO1 191904Z 34008KT 13/M04 A3036 RMK A01 T01301037  RH  031%=      5-min Rain = 0
KCO1 191905Z 31004KT 13/M04 A3036 RMK A01 T01301040  RH  031%=      5-min Rain = 0
KCO1 191906Z 02006KT 13/M04 A3036 RMK A01 T01291039  RH  031%=      5-min Rain = 0
KCO1 191907Z 02004KT 13/M04 A3036 RMK A01 T01301038  RH  031%=      5-min Rain = 0
KCO1 191908Z 02005KT 13/M04 A3036 RMK A01 T01301038  RH  031%=      5-min Rain = 0
KCO1 191909Z 01006KT 13/M04 A3036 RMK A01 T01301039  RH  031%=      5-min Rain = 0
KCO1 191910Z 03005KT 13/M04 A3036 RMK A01 T01281041  RH  030%=      5-min Rain = 0
KCO1 191911Z 04002KT 13/M04 A3036 RMK A01 T01271041  RH  031%=      5-min Rain = 0
KCO1 191912Z 35004KT 13/M04 A3036 RMK A01 T01281039  RH  031%=      5-min Rain = 0
KCO1 191913Z 34005KT 13/M04 A3036 RMK A01 T01291039  RH  031%=      5-min Rain = 0
KCO1 191914Z 35004KT 13/M04 A3036 RMK A01 T01291040  RH  031%=      5-min Rain = 0
KCO1 191915Z 00002KT 13/M04 A3036 RMK A01 T01281041  RH  030%=      5-min Rain = 0
KCO1 191916Z 00004KT 13/M04 A3036 RMK A01 T01281039  RH  031%=      5-min Rain = 0
KCO1 191917Z 00003KT 13/M04 A3036 RMK A01 T01291040  RH  031%=      5-min Rain = 0
KCO1 191918Z 02003KT 13/M04 A3036 RMK A01 T01291038  RH  031%=      5-min Rain = 0
KCO1 191919Z 05001KT 13/M04 A3036 RMK A01 T01281042  RH  030%=      5-min Rain = 0
KCO1 191920Z 15001KT 13/M04 A3035 RMK A01 T01281042  RH  030%=      5-min Rain = 0
KCO1 191921Z 13002KT 13/M04 A3035 RMK A01 T01301039  RH  031%=      5-min Rain = 0
KCO1 191922Z 14002KT 13/M04 A3035 RMK A01 T01331039  RH  030%=      5-min Rain = 0
KCO1 191923Z 19002KT 14/M04 A3035 RMK A01 T01351038  RH  030%=      5-min Rain = 0
KCO1 191924Z 23001KT 14/M04 A3035 RMK A01 T01361040  RH  029%=      5-min Rain = 0
KCO1 191925Z 32004KT 14/M04 A3035 RMK A01 T01371038  RH  030%=      5-min Rain = 0
KCO1 191926Z 33003KT 14/M04 A3035 RMK A01 T01381037  RH  030%=      5-min Rain = 0
KCO1 191927Z 34005KT 14/M04 A3035 RMK A01 T01381036  RH  030%=      5-min Rain = 0
KCO1 191928Z 32005KT 14/M04 A3035 RMK A01 T01381037  RH  030%=      5-min Rain = 0
KCO1 191929Z 29004KT 14/M04 A3035 RMK A01 T01391038  RH  029%=      5-min Rain = 0
KCO1 191930Z 29007KT 14/M04 A3035 RMK A01 T01391037  RH  029%=      5-min Rain = 0
KCO1 191931Z 30008KT 14/M04 A3034 RMK A01 T01391040  RH  029%=      5-min Rain = 0
KCO1 191932Z 30005KT 14/M04 A3034 RMK A01 T01361043  RH  029%=      5-min Rain = 0
KCO1 191933Z 27005KT 13/M04 A3034 RMK A01 T01331042  RH  029%=      5-min Rain = 0
KCO1 191934Z 29006KT 14/M04 A3034 RMK A01 T01351038  RH  030%=      5-min Rain = 0
KCO1 191935Z 28007KT 14/M04 A3034 RMK A01 T01371037  RH  030%=      5-min Rain = 0
KCO1 191936Z 30009KT 14/M04 A3034 RMK A01 T01391038  RH  029%=      5-min Rain = 0
KCO1 191937Z 29008KT 14/M04 A3034 RMK A01 T01391039  RH  029%=      5-min Rain = 0
KCO1 191938Z 28007KT 14/M04 A3034 RMK A01 T01381041  RH  029%=      5-min Rain = 0
KCO1 191939Z 30006KT 14/M04 A3034 RMK A01 T01351043  RH  029%=      5-min Rain = 0
KCO1 191940Z 32006KT 13/M04 A3034 RMK A01 T01331043  RH  029%=      5-min Rain = 0
KCO1 191941Z 34008KT 13/M04 A3034 RMK A01 T01321042  RH  029%=      5-min Rain = 0
KCO1 191942Z 35009KT 13/M04 A3034 RMK A01 T01331040  RH  030%=      5-min Rain = 0
KCO1 191943Z 35006KT 13/M04 A3034 RMK A01 T01331043  RH  029%=      5-min Rain = 0
KCO1 191944Z 00004KT 13/M04 A3034 RMK A01 T01321041  RH  030%=      5-min Rain = 0
KCO1 191945Z 35005KT 13/M04 A3033 RMK A01 T01331041  RH  030%=      5-min Rain = 0
KCO1 191946Z 35006KT 13/M04 A3034 RMK A01 T01341038  RH  030%=      5-min Rain = 0
KCO1 191947Z 34003KT 14/M04 A3034 RMK A01 T01351041  RH  029%=      5-min Rain = 0
KCO1 191948Z 10001KT 13/M04 A3033 RMK A01 T01331043  RH  029%=      5-min Rain = 0
KCO1 191949Z 01004KT 13/M04 A3033 RMK A01 T01341041  RH  029%=      5-min Rain = 0
KCO1 191950Z 00004KT 14/M04 A3033 RMK A01 T01361038  RH  030%=      5-min Rain = 0
KCO1 191951Z 02003KT 14/M04 A3033 RMK A01 T01361040  RH  029%=      5-min Rain = 0
KCO1 191952Z 32003KT 14/M04 A3033 RMK A01 T01361040  RH  029%=      5-min Rain = 0
KCO1 191953Z 35003KT 14/M04 A3033 RMK A01 T01361039  RH  029%=      5-min Rain = 0
KCO1 191954Z 35002KT 14/M04 A3033 RMK A01 T01371041  RH  029%=      5-min Rain = 0
KCO1 191955Z 35003KT 14/M04 A3033 RMK A01 T01361041  RH  029%=      5-min Rain = 0
KCO1 191956Z 35002KT 14/M04 A3033 RMK A01 T01361042  RH  029%=      5-min Rain = 0
KCO1 191957Z 32002KT 14/M04 A3033 RMK A01 T01351041  RH  029%=      5-min Rain = 0
KCO1 191958Z 29001KT 14/M04 A3033 RMK A01 T01361039  RH  029%=      5-min Rain = 0
KCO1 191959Z 34003KT 14/M04 A3033 RMK A01 T01391036  RH  030%=      5-min Rain = 0
KCO1 192000Z 34003KT 14/M04 A3033 RMK A01 T01411036  RH  029%=      5-min Rain = 0
KCO1 192001Z 35004KT 14/M04 A3033 RMK A01 T01431036  RH  029%=      5-min Rain = 0
KCO1 192002Z 32006KT 14/M04 A3033 RMK A01 T01441038  RH  028%=      5-min Rain = 0
KCO1 192003Z 32008KT 14/M04 A3033 RMK A01 T01441038  RH  028%=      5-min Rain = 0
KCO1 192004Z 33008KT 14/M04 A3032 RMK A01 T01421041  RH  028%=      5-min Rain = 0
KCO1 192005Z 35006KT 14/M04 A3033 RMK A01 T01391042  RH  028%=      5-min Rain = 0
KCO1 192006Z 00004KT 14/M04 A3033 RMK A01 T01381042  RH  028%=      5-min Rain = 0
KCO1 192007Z 34005KT 14/M04 A3033 RMK A01 T01371042  RH  028%=      5-min Rain = 0
KCO1 192008Z 34003KT 14/M04 A3032 RMK A01 T01371041  RH  029%=      5-min Rain = 0
KCO1 192009Z 34003KT 14/M04 A3032 RMK A01 T01381040  RH  029%=      5-min Rain = 0
KCO1 192010Z 31001KT 14/M04 A3032 RMK A01 T01381039  RH  029%=      5-min Rain = 0
KCO1 192011Z 31002KT 14/M03 A3032 RMK A01 T01401034  RH  030%=      5-min Rain = 0
KCO1 192012Z 34005KT 14/M04 A3032 RMK A01 T01421039  RH  028%=      5-min Rain = 0
KCO1 192013Z 34008KT 14/M04 A3032 RMK A01 T01421038  RH  029%=      5-min Rain = 0
KCO1 192014Z 34007KT 14/M04 A3032 RMK A01 T01421040  RH  028%=      5-min Rain = 0
KCO1 192015Z 34009KT 14/M04 A3032 RMK A01 T01421040  RH  028%=      5-min Rain = 0
KCO1 192016Z 34009KT 14/M04 A3032 RMK A01 T01421040  RH  028%=      5-min Rain = 0
KCO1 192017Z 33009KT 14/M04 A3032 RMK A01 T01431040  RH  028%=      5-min Rain = 0
KCO1 192018Z 33010KT 14/M04 A3032 RMK A01 T01421041  RH  028%=      5-min Rain = 0
KCO1 192019Z 34008KT 14/M04 A3032 RMK A01 T01411042  RH  028%=      5-min Rain = 0
KCO1 192020Z 31010KT 14/M04 A3032 RMK A01 T01401041  RH  028%=      5-min Rain = 0
KCO1 192021Z 31008KT 14/M04 A3032 RMK A01 T01401042  RH  028%=      5-min Rain = 0
KCO1 192022Z 31007KT 14/M04 A3032 RMK A01 T01401041  RH  028%=      5-min Rain = 0
KCO1 192023Z 31007KT 14/M04 A3032 RMK A01 T01401042  RH  028%=      5-min Rain = 0
KCO1 192024Z 32004KT 14/M04 A3031 RMK A01 T01401042  RH  028%=      5-min Rain = 0
KCO1 192025Z 33003KT 14/M04 A3031 RMK A01 T01391042  RH  028%=      5-min Rain = 0
KCO1 192026Z 30003KT 14/M04 A3031 RMK A01 T01401039  RH  029%=      5-min Rain = 0
KCO1 192027Z 30003KT 14/M04 A3031 RMK A01 T01411040  RH  028%=      5-min Rain = 0
KCO1 192028Z 30002KT 14/M04 A3031 RMK A01 T01421040  RH  028%=      5-min Rain = 0
KCO1 192029Z 28003KT 14/M04 A3031 RMK A01 T01431039  RH  028%=      5-min Rain = 0
KCO1 192030Z 33008KT 14/M04 A3031 RMK A01 T01441038  RH  028%=      5-min Rain = 0
KCO1 192031Z 32009KT 14/M04 A3031 RMK A01 T01421042  RH  028%=      5-min Rain = 0
KCO1 192032Z 30006KT 14/M04 A3031 RMK A01 T01411042  RH  028%=      5-min Rain = 0
KCO1 192033Z 28005KT 14/M04 A3031 RMK A01 T01411039  RH  028%=      5-min Rain = 0
KCO1 192034Z 29005KT 14/M04 A3031 RMK A01 T01431038  RH  028%=      5-min Rain = 0
KCO1 192035Z 30007KT 15/M04 A3031 RMK A01 T01451037  RH  028%=      5-min Rain = 0
KCO1 192036Z 29006KT 15/M04 A3031 RMK A01 T01461039  RH  028%=      5-min Rain = 0
KCO1 192037Z 32007KT 15/M04 A3031 RMK A01 T01451040  RH  028%=      5-min Rain = 0
KCO1 192038Z 33007KT 14/M04 A3031 RMK A01 T01441041  RH  028%=      5-min Rain = 0
KCO1 192039Z 35005KT 14/M04 A3031 RMK A01 T01411042  RH  028%=      5-min Rain = 0
KCO1 192040Z 33004KT 14/M04 A3031 RMK A01 T01411041  RH  028%=      5-min Rain = 0
KCO1 192041Z 31001KT 14/M04 A3031 RMK A01 T01401041  RH  028%=      5-min Rain = 0
KCO1 192042Z 09001KT 14/M04 A3031 RMK A01 T01411038  RH  029%=      5-min Rain = 0
KCO1 192043Z 29001KT 14/M04 A3031 RMK A01 T01421040  RH  028%=      5-min Rain = 0
KCO1 192044Z 28007KT 14/M04 A3031 RMK A01 T01421041  RH  028%=      5-min Rain = 0
KCO1 192045Z 29007KT 15/M04 A3031 RMK A01 T01451039  RH  028%=      5-min Rain = 0
KCO1 192046Z 27007KT 15/M04 A3031 RMK A01 T01461039  RH  028%=      5-min Rain = 0
KCO1 192047Z 29007KT 15/M04 A3031 RMK A01 T01471038  RH  028%=      5-min Rain = 0
KCO1 192048Z 29009KT 15/M04 A3031 RMK A01 T01471039  RH  027%=      5-min Rain = 0
KCO1 192049Z 28004KT 15/M04 A3031 RMK A01 T01471039  RH  027%=      5-min Rain = 0
KCO1 192050Z 29005KT 15/M04 A3031 RMK A01 T01471039  RH  027%=      5-min Rain = 0
KCO1 192051Z 26004KT 15/M04 A3031 RMK A01 T01481040  RH  027%=      5-min Rain = 0
KCO1 192052Z 28003KT 15/M04 A3031 RMK A01 T01471040  RH  027%=      5-min Rain = 0
KCO1 192053Z 28005KT 15/M04 A3031 RMK A01 T01471039  RH  027%=      5-min Rain = 0
KCO1 192054Z 27007KT 15/M04 A303 RMK A01 T01471039  RH  027%=      5-min Rain = 0
KCO1 192055Z 26008KT 15/M04 A303 RMK A01 T01481039  RH  027%=      5-min Rain = 0
KCO1 192056Z 27006KT 15/M04 A303 RMK A01 T01481040  RH  027%=      5-min Rain = 0
KCO1 192057Z 27007KT 15/M04 A303 RMK A01 T01471041  RH  027%=      5-min Rain = 0
KCO1 192058Z 26005KT 15/M04 A303 RMK A01 T01461042  RH  027%=      5-min Rain = 0
KCO1 192059Z 27009KT 15/M04 A303 RMK A01 T01451039  RH  028%=      5-min Rain = 0
KCO1 192100Z 28008KT 15/M04 A303 RMK A01 T01481037  RH  028%=      5-min Rain = 0
KCO1 192101Z 29007KT 15/M04 A303 RMK A01 T01481039  RH  027%=      5-min Rain = 0
KCO1 192102Z 27007KT 15/M04 A303 RMK A01 T01481038  RH  027%=      5-min Rain = 0
KCO1 192103Z 26005KT 15/M04 A303 RMK A01 T01471038  RH  028%=      5-min Rain = 0
KCO1 192104Z 26004KT 15/M04 A303 RMK A01 T01471038  RH  028%=      5-min Rain = 0
KCO1 192105Z 29006KT 15/M04 A303 RMK A01 T01481038  RH  027%=      5-min Rain = 0
KCO1 192106Z 30005KT 15/M04 A303 RMK A01 T01481038  RH  027%=      5-min Rain = 0
KCO1 192107Z 30004KT 15/M04 A303 RMK A01 T01471040  RH  027%=      5-min Rain = 0
KCO1 192108Z 29001KT 15/M04 A303 RMK A01 T01451038  RH  028%=      5-min Rain = 0
KCO1 192109Z 01001KT 15/M04 A303 RMK A01 T01461035  RH  028%=      5-min Rain = 0
KCO1 192110Z 28000KT 15/M04 A303 RMK A01 T01471038  RH  028%=      5-min Rain = 0
KCO1 192111Z 25002KT 15/M04 A303 RMK A01 T01481039  RH  027%=      5-min Rain = 0
KCO1 192112Z 21001KT 15/M04 A303 RMK A01 T01481040  RH  027%=      5-min Rain = 0
KCO1 192113Z 25004KT 15/M04 A303 RMK A01 T01491039  RH  027%=      5-min Rain = 0
KCO1 192114Z 26005KT 15/M04 A303 RMK A01 T01501038  RH  027%=      5-min Rain = 0
KCO1 192115Z 25005KT 15/M04 A303 RMK A01 T01501037  RH  027%=      5-min Rain = 0
KCO1 192116Z 24007KT 15/M04 A303 RMK A01 T01521035  RH  027%=      5-min Rain = 0
KCO1 192117Z 25007KT 15/M04 A303 RMK A01 T01541036  RH  027%=      5-min Rain = 0
KCO1 192118Z 26005KT 15/M04 A303 RMK A01 T01541037  RH  027%=      5-min Rain = 0
KCO1 192119Z 26005KT 15/M04 A303 RMK A01 T01541037  RH  027%=      5-min Rain = 0
KCO1 192120Z 24006KT 15/M04 A3029 RMK A01 T01541038  RH  026%=      5-min Rain = 0
KCO1 192121Z 26004KT 15/M04 A3029 RMK A01 T01531038  RH  027%=      5-min Rain = 0
KCO1 192122Z 31002KT 15/M04 A3029 RMK A01 T01521042  RH  026%=      5-min Rain = 0
KCO1 192123Z 25003KT 15/M04 A3029 RMK A01 T01501043  RH  026%=      5-min Rain = 0
KCO1 192124Z 23003KT 15/M04 A3029 RMK A01 T01491042  RH  026%=      5-min Rain = 0
KCO1 192125Z 23006KT 15/M04 A3029 RMK A01 T01501040  RH  027%=      5-min Rain = 0
KCO1 192126Z 25007KT 15/M04 A3029 RMK A01 T01511039  RH  027%=      5-min Rain = 0
KCO1 192127Z 26004KT 15/M04 A3029 RMK A01 T01501041  RH  026%=      5-min Rain = 0
KCO1 192128Z 28005KT 15/M04 A3029 RMK A01 T01501040  RH  027%=      5-min Rain = 0
KCO1 192129Z 30006KT 15/M04 A3029 RMK A01 T01501038  RH  027%=      5-min Rain = 0
KCO1 192130Z 29007KT 15/M04 A3029 RMK A01 T01501040  RH  027%=      5-min Rain = 0
KCO1 192131Z 29007KT 15/M04 A3029 RMK A01 T01491039  RH  027%=      5-min Rain = 0
KCO1 192132Z 29007KT 15/M04 A3029 RMK A01 T01501040  RH  027%=      5-min Rain = 0
KCO1 192133Z 30006KT 15/M04 A3029 RMK A01 T01501040  RH  027%=      5-min Rain = 0
KCO1 192134Z 31006KT 15/M04 A3029 RMK A01 T01491042  RH  026%=      5-min Rain = 0
KCO1 192135Z 30006KT 15/M04 A3029 RMK A01 T01481041  RH  027%=      5-min Rain = 0
KCO1 192136Z 28008KT 15/M04 A3029 RMK A01 T01481039  RH  027%=      5-min Rain = 0
KCO1 192137Z 28006KT 15/M04 A3029 RMK A01 T01511038  RH  027%=      5-min Rain = 0
KCO1 192138Z 27003KT 15/M04 A3029 RMK A01 T01521037  RH  027%=      5-min Rain = 0
KCO1 192139Z 28005KT 15/M04 A3029 RMK A01 T01541036  RH  027%=      5-min Rain = 0
KCO1 192140Z 28006KT 16/M04 A3029 RMK A01 T01551038  RH  026%=      5-min Rain = 0
KCO1 192141Z 26008KT 16/M04 A3029 RMK A01 T01561037  RH  026%=      5-min Rain = 0
KCO1 192142Z 28008KT 16/M04 A3029 RMK A01 T01551038  RH  026%=      5-min Rain = 0
KCO1 192143Z 31005KT 15/M04 A3029 RMK A01 T01531041  RH  026%=      5-min Rain = 0
KCO1 192144Z 35003KT 15/M04 A3029 RMK A01 T01501043  RH  026%=      5-min Rain = 0
KCO1 192145Z 30002KT 15/M04 A3029 RMK A01 T01481042  RH  027%=      5-min Rain = 0
KCO1 192146Z 28004KT 15/M04 A3029 RMK A01 T01481041  RH  027%=      5-min Rain = 0
KCO1 192147Z 27009KT 15/M04 A3029 RMK A01 T01501039  RH  027%=      5-min Rain = 0
KCO1 192148Z 28009KT 15/M04 A3029 RMK A01 T01521038  RH  027%=      5-min Rain = 0
KCO1 192149Z 27009KT 15/M04 A3029 RMK A01 T01531040  RH  026%=      5-min Rain = 0
KCO1 192150Z 27009KT 15/M04 A3029 RMK A01 T01541039  RH  026%=      5-min Rain = 0
KCO1 192151Z 26010KT 15/M04 A3029 RMK A01 T01541040  RH  026%=      5-min Rain = 0
KCO1 192152Z 25009KT 15/M04 A3029 RMK A01 T01521043  RH  026%=      5-min Rain = 0
KCO1 192153Z 26008KT 15/M04 A3029 RMK A01 T01501042  RH  026%=      5-min Rain = 0
KCO1 192154Z 27009KT 15/M04 A3029 RMK A01 T01501040  RH  027%=      5-min Rain = 0
KCO1 192155Z 29007KT 15/M04 A3029 RMK A01 T01521037  RH  027%=      5-min Rain = 0
KCO1 192156Z 28008KT 15/M04 A3029 RMK A01 T01541037  RH  027%=      5-min Rain = 0
KCO1 192157Z 27007KT 16/M04 A3029 RMK A01 T01551038  RH  026%=      5-min Rain = 0
KCO1 192158Z 26007KT 16/M04 A3029 RMK A01 T01551039  RH  026%=      5-min Rain = 0
KCO1 192159Z 25008KT 15/M04 A3029 RMK A01 T01541041  RH  026%=      5-min Rain = 0
KCO1 192200Z 23008KT 15/M04 A3029 RMK A01 T01531040  RH  026%=      5-min Rain = 0
KCO1 192201Z 23006KT 15/M04 A3029 RMK A01 T01521040  RH  026%=      5-min Rain = 0
KCO1 192202Z 25005KT 15/M04 A3029 RMK A01 T01521038  RH  027%=      5-min Rain = 0
KCO1 192203Z 30006KT 15/M04 A3029 RMK A01 T01541037  RH  027%=      5-min Rain = 0
KCO1 192204Z 29007KT 16/M04 A3029 RMK A01 T01551039  RH  026%=      5-min Rain = 0
KCO1 192205Z 30007KT 15/M04 A3029 RMK A01 T01541040  RH  026%=      5-min Rain = 0
KCO1 192206Z 30008KT 15/M04 A3029 RMK A01 T01531041  RH  026%=      5-min Rain = 0
KCO1 192207Z 32005KT 15/M05 A3029 RMK A01 T01501046  RH  026%=      5-min Rain = 0
KCO1 192208Z 28004KT 15/M04 A3029 RMK A01 T01481042  RH  027%=      5-min Rain = 0
KCO1 192209Z 27005KT 15/M04 A3028 RMK A01 T01511038  RH  027%=      5-min Rain = 0
KCO1 192210Z 27004KT 15/M04 A3029 RMK A01 T01531040  RH  026%=      5-min Rain = 0
KCO1 192211Z 29003KT 15/M04 A3029 RMK A01 T01531042  RH  026%=      5-min Rain = 0
KCO1 192212Z 30005KT 15/M04 A3029 RMK A01 T01521040  RH  026%=      5-min Rain = 0
KCO1 192213Z 30005KT 15/M04 A3029 RMK A01 T01531040  RH  026%=      5-min Rain = 0
KCO1 192214Z 30005KT 15/M04 A3028 RMK A01 T01531040  RH  026%=      5-min Rain = 0
KCO1 192215Z 29005KT 15/M04 A3028 RMK A01 T01531040  RH  026%=      5-min Rain = 0
KCO1 192216Z 30005KT 15/M04 A3028 RMK A01 T01521043  RH  026%=      5-min Rain = 0
KCO1 192217Z 29005KT 15/M04 A3028 RMK A01 T01511042  RH  026%=      5-min Rain = 0
KCO1 192218Z 30003KT 15/M04 A3028 RMK A01 T01511041  RH  026%=      5-min Rain = 0
KCO1 192219Z 27005KT 15/M04 A3028 RMK A01 T01501041  RH  026%=      5-min Rain = 0
KCO1 192220Z 28005KT 15/M04 A3028 RMK A01 T01511041  RH  026%=      5-min Rain = 0
KCO1 192221Z 29005KT 15/M04 A3028 RMK A01 T01521042  RH  026%=      5-min Rain = 0
KCO1 192222Z 28004KT 15/M04 A3028 RMK A01 T01521041  RH  026%=      5-min Rain = 0
KCO1 192223Z 30004KT 15/M04 A3028 RMK A01 T01521040  RH  026%=      5-min Rain = 0
KCO1 192224Z 32004KT 15/M04 A3028 RMK A01 T01531039  RH  026%=      5-min Rain = 0
KCO1 192225Z 32007KT 15/M04 A3028 RMK A01 T01521042  RH  026%=      5-min Rain = 0
KCO1 192226Z 32007KT 15/M04 A3028 RMK A01 T01511044  RH  026%=      5-min Rain = 0
KCO1 192227Z 28008KT 15/M05 A3028 RMK A01 T01501045  RH  026%=      5-min Rain = 0
KCO1 192228Z 27006KT 15/M04 A3028 RMK A01 T01501042  RH  026%=      5-min Rain = 0
KCO1 192229Z 28006KT 15/M04 A3028 RMK A01 T01511044  RH  026%=      5-min Rain = 0
KCO1 192230Z 27004KT 15/M05 A3028 RMK A01 T01511046  RH  025%=      5-min Rain = 0
KCO1 192231Z 26003KT 15/M05 A3028 RMK A01 T01501048  RH  025%=      5-min Rain = 0
KCO1 192232Z 27003KT 15/M05 A3028 RMK A01 T01511047  RH  025%=      5-min Rain = 0
KCO1 192233Z 23003KT 15/M05 A3028 RMK A01 T01531045  RH  025%=      5-min Rain = 0
KCO1 192234Z 21004KT 16/M04 A3028 RMK A01 T01551044  RH  025%=      5-min Rain = 0
KCO1 192235Z 22004KT 15/M05 A3028 RMK A01 T01541047  RH  025%=      5-min Rain = 0
KCO1 192236Z 25004KT 15/M05 A3028 RMK A01 T01531046  RH  025%=      5-min Rain = 0
KCO1 192237Z 28004KT 15/M04 A3028 RMK A01 T01531043  RH  026%=      5-min Rain = 0
KCO1 192238Z 27006KT 16/M04 A3028 RMK A01 T01551042  RH  026%=      5-min Rain = 0
KCO1 192239Z 28005KT 16/M04 A3028 RMK A01 T01551043  RH  025%=      5-min Rain = 0
KCO1 192240Z 29005KT 16/M04 A3028 RMK A01 T01551041  RH  026%=      5-min Rain = 0
KCO1 192241Z 28006KT 16/M04 A3028 RMK A01 T01551042  RH  026%=      5-min Rain = 0
KCO1 192242Z 28006KT 15/M04 A3028 RMK A01 T01541043  RH  025%=      5-min Rain = 0
KCO1 192243Z 29006KT 16/M05 A3028 RMK A01 T01551047  RH  025%=      5-min Rain = 0
KCO1 192244Z 29007KT 15/M05 A3028 RMK A01 T01541050  RH  024%=      5-min Rain = 0
KCO1 192245Z 28006KT 15/M05 A3028 RMK A01 T01541050  RH  024%=      5-min Rain = 0
KCO1 192246Z 28006KT 15/M05 A3028 RMK A01 T01531049  RH  024%=      5-min Rain = 0
KCO1 192247Z 29007KT 15/M05 A3028 RMK A01 T01531049  RH  024%=      5-min Rain = 0
KCO1 192248Z 29007KT 15/M05 A3028 RMK A01 T01531048  RH  025%=      5-min Rain = 0
KCO1 192249Z 29007KT 15/M05 A3028 RMK A01 T01531047  RH  025%=      5-min Rain = 0
KCO1 192250Z 29005KT 15/M05 A3028 RMK A01 T01531047  RH  025%=      5-min Rain = 0
KCO1 192251Z 30009KT 15/M05 A3028 RMK A01 T01531047  RH  025%=      5-min Rain = 0
KCO1 192252Z 29007KT 15/M05 A3028 RMK A01 T01531049  RH  024%=      5-min Rain = 0
KCO1 192253Z 29006KT 15/M05 A3028 RMK A01 T01531048  RH  025%=      5-min Rain = 0
KCO1 192254Z 30008KT 15/M05 A3028 RMK A01 T01531049  RH  025%=      5-min Rain = 0
KCO1 192255Z 29006KT 15/M05 A3028 RMK A01 T01521051  RH  024%=      5-min Rain = 0
KCO1 192256Z 28006KT 15/M05 A3028 RMK A01 T01511050  RH  025%=      5-min Rain = 0
KCO1 192257Z 27006KT 15/M05 A3028 RMK A01 T01511049  RH  025%=      5-min Rain = 0
KCO1 192258Z 26008KT 15/M05 A3028 RMK A01 T01511048  RH  025%=      5-min Rain = 0
KCO1 192259Z 28004KT 15/M05 A3028 RMK A01 T01511048  RH  025%=      5-min Rain = 0
KCO1 192300Z 29005KT 15/M05 A3028 RMK A01 T01521047  RH  025%=      5-min Rain = 0
KCO1 192301Z 29004KT 15/M05 A3028 RMK A01 T01521049  RH  024%=      5-min Rain = 0
KCO1 192302Z 30005KT 15/M05 A3028 RMK A01 T01511048  RH  025%=      5-min Rain = 0
KCO1 192303Z 28004KT 15/M05 A3028 RMK A01 T01511047  RH  025%=      5-min Rain = 0
KCO1 192304Z 27006KT 15/M05 A3028 RMK A01 T01521049  RH  025%=      5-min Rain = 0
KCO1 192305Z 26005KT 15/M05 A3028 RMK A01 T01521050  RH  024%=      5-min Rain = 0
KCO1 192306Z 24006KT 15/M05 A3028 RMK A01 T01511050  RH  025%=      5-min Rain = 0
KCO1 192307Z 29006KT 15/M05 A3028 RMK A01 T01511049  RH  025%=      5-min Rain = 0
KCO1 192308Z 28008KT 15/M05 A3028 RMK A01 T01521048  RH  025%=      5-min Rain = 0
KCO1 192309Z 28007KT 15/M05 A3028 RMK A01 T01521050  RH  024%=      5-min Rain = 0
KCO1 192310Z 28007KT 15/M05 A3028 RMK A01 T01511051  RH  024%=      5-min Rain = 0
KCO1 192311Z 27007KT 15/M05 A3028 RMK A01 T01501051  RH  024%=      5-min Rain = 0
KCO1 192312Z 28005KT 15/M05 A3028 RMK A01 T01501050  RH  025%=      5-min Rain = 0
KCO1 192313Z 30006KT 15/M05 A3028 RMK A01 T01501050  RH  025%=      5-min Rain = 0
KCO1 192314Z 30005KT 15/M05 A3028 RMK A01 T01501053  RH  024%=      5-min Rain = 0
KCO1 192315Z 30005KT 15/M05 A3028 RMK A01 T01501052  RH  024%=      5-min Rain = 0
KCO1 192316Z 29005KT 15/M05 A3028 RMK A01 T01501052  RH  024%=      5-min Rain = 0
KCO1 192317Z 29006KT 15/M05 A3028 RMK A01 T01501052  RH  024%=      5-min Rain = 0
KCO1 192318Z 29007KT 15/M05 A3028 RMK A01 T01501052  RH  024%=      5-min Rain = 0
KCO1 192319Z 29007KT 15/M05 A3028 RMK A01 T01481053  RH  024%=      5-min Rain = 0
KCO1 192320Z 29007KT 15/M05 A3028 RMK A01 T01481053  RH  025%=      5-min Rain = 0
KCO1 192321Z 30005KT 15/M05 A3028 RMK A01 T01471053  RH  025%=      5-min Rain = 0
KCO1 192322Z 31005KT 15/M05 A3028 RMK A01 T01471052  RH  025%=      5-min Rain = 0
KCO1 192323Z 30004KT 15/M05 A3028 RMK A01 T01471051  RH  025%=      5-min Rain = 0
KCO1 192324Z 31006KT 15/M05 A3028 RMK A01 T01471050  RH  025%=      5-min Rain = 0
KCO1 192325Z 30007KT 15/M05 A3028 RMK A01 T01481052  RH  025%=      5-min Rain = 0
KCO1 192326Z 30007KT 15/M05 A3028 RMK A01 T01471052  RH  025%=      5-min Rain = 0
KCO1 192327Z 31006KT 15/M05 A3028 RMK A01 T01471052  RH  025%=      5-min Rain = 0
KCO1 192328Z 30005KT 15/M05 A3028 RMK A01 T01461052  RH  025%=      5-min Rain = 0
KCO1 192329Z 28007KT 15/M05 A3028 RMK A01 T01461051  RH  025%=      5-min Rain = 0
KCO1 192330Z 30004KT 15/M05 A3028 RMK A01 T01461051  RH  025%=      5-min Rain = 0
KCO1 192331Z 30005KT 15/M05 A3028 RMK A01 T01461050  RH  025%=      5-min Rain = 0
KCO1 192332Z 29006KT 15/M05 A3028 RMK A01 T01461051  RH  025%=      5-min Rain = 0
KCO1 192333Z 29006KT 15/M05 A3028 RMK A01 T01461051  RH  025%=      5-min Rain = 0
KCO1 192334Z 29005KT 15/M05 A3028 RMK A01 T01461053  RH  025%=      5-min Rain = 0
KCO1 192335Z 30003KT 15/M05 A3028 RMK A01 T01461054  RH  025%=      5-min Rain = 0
KCO1 192336Z 31003KT 15/M05 A3028 RMK A01 T01461053  RH  025%=      5-min Rain = 0
KCO1 192337Z 30003KT 15/M05 A3028 RMK A01 T01461054  RH  025%=      5-min Rain = 0
KCO1 192338Z 28003KT 15/M05 A3028 RMK A01 T01461054  RH  025%=      5-min Rain = 0
KCO1 192339Z 28003KT 15/M05 A3028 RMK A01 T01461053  RH  025%=      5-min Rain = 0
KCO1 192340Z 29003KT 15/M05 A3028 RMK A01 T01461052  RH  025%=      5-min Rain = 0
KCO1 192341Z 30003KT 15/M05 A3028 RMK A01 T01461051  RH  025%=      5-min Rain = 0
KCO1 192342Z 31003KT 15/M05 A3028 RMK A01 T01461051  RH  025%=      5-min Rain = 0
KCO1 192343Z 29002KT 15/M05 A3028 RMK A01 T01461051  RH  025%=      5-min Rain = 0
KCO1 192344Z 29002KT 15/M05 A3028 RMK A01 T01461050  RH  025%=      5-min Rain = 0
KCO1 192345Z 30002KT 15/M05 A3028 RMK A01 T01451051  RH  025%=      5-min Rain = 0
KCO1 192346Z 29002KT 15/M05 A3028 RMK A01 T01451051  RH  025%=      5-min Rain = 0
KCO1 192347Z 29002KT 15/M05 A3028 RMK A01 T01451051  RH  025%=      5-min Rain = 0
KCO1 192348Z 29002KT 15/M05 A3028 RMK A01 T01451051  RH  025%=      5-min Rain = 0
KCO1 192349Z 30002KT 15/M05 A3028 RMK A01 T01451051  RH  025%=      5-min Rain = 0
KCO1 192350Z 30002KT 14/M05 A3028 RMK A01 T01441050  RH  026%=      5-min Rain = 0
KCO1 192351Z 31001KT 14/M05 A3028 RMK A01 T01441051  RH  026%=      5-min Rain = 0
KCO1 192352Z 30001KT 14/M05 A3028 RMK A01 T01441051  RH  025%=      5-min Rain = 0
KCO1 192353Z 30001KT 15/M05 A3028 RMK A01 T01451051  RH  025%=      5-min Rain = 0
KCO1 192354Z 32001KT 14/M05 A3028 RMK A01 T01441050  RH  026%=      5-min Rain = 0
KCO1 192355Z 31001KT 14/M05 A3028 RMK A01 T01441050  RH  026%=      5-min Rain = 0
KCO1 192356Z 31000KT 14/M05 A3027 RMK A01 T01431051  RH  026%=      5-min Rain = 0
KCO1 192357Z 30001KT 14/M05 A3027 RMK A01 T01441050  RH  026%=      5-min Rain = 0
KCO1 192358Z 28000KT 14/M05 A3027 RMK A01 T01441050  RH  026%=      5-min Rain = 0
KCO1 192359Z 00000KT 14/M05 A3027 RMK A01 T01441049  RH  026%=      5-min Rain = 0
KCO1 200000Z 30000KT 14/M05 A3027 RMK A01 T01441049  RH  026%=      5-min Rain = 0
KCO1 200001Z 30000KT 14/M05 A3027 RMK A01 T01441049  RH  026%=      5-min Rain = 0
KCO1 200002Z 00000KT 14/M05 A3027 RMK A01 T01441049  RH  026%=      5-min Rain = 0
KCO1 200003Z 30000KT 15/M05 A3027 RMK A01 T01451046  RH  026%=      5-min Rain = 0
KCO1 200004Z 30001KT 14/M05 A3027 RMK A01 T01441047  RH  026%=      5-min Rain = 0
KCO1 200005Z 30001KT 14/M05 A3027 RMK A01 T01431047  RH  026%=      5-min Rain = 0
KCO1 200006Z 30000KT 14/M05 A3027 RMK A01 T01411048  RH  027%=      5-min Rain = 0
KCO1 200007Z 00000KT 14/M05 A3027 RMK A01 T01401049  RH  027%=      5-min Rain = 0
KCO1 200008Z 00000KT 14/M05 A3027 RMK A01 T01391050  RH  027%=      5-min Rain = 0
KCO1 200009Z 00000KT 14/M05 A3027 RMK A01 T01371045  RH  028%=      5-min Rain = 0
KCO1 200010Z 00000KT 13/M04 A3027 RMK A01 T01341044  RH  029%=      5-min Rain = 0
KCO1 200011Z 00000KT 13/M05 A3027 RMK A01 T01321047  RH  028%=      5-min Rain = 0
KCO1 200012Z 29000KT 13/M05 A3027 RMK A01 T01311049  RH  028%=      5-min Rain = 0
KCO1 200013Z 29001KT 13/M05 A3027 RMK A01 T01301049  RH  028%=      5-min Rain = 0
KCO1 200014Z 09001KT 13/M05 A3027 RMK A01 T01291049  RH  028%=      5-min Rain = 0
KCO1 200015Z 10001KT 13/M05 A3027 RMK A01 T01291049  RH  029%=      5-min Rain = 0
KCO1 200016Z 09002KT 13/M05 A3027 RMK A01 T01281050  RH  029%=      5-min Rain = 0
KCO1 200017Z 09001KT 13/M05 A3027 RMK A01 T01271049  RH  029%=      5-min Rain = 0
KCO1 200018Z 10001KT 13/M05 A3027 RMK A01 T01261052  RH  029%=      5-min Rain = 0
KCO1 200019Z 10002KT 13/M05 A3027 RMK A01 T01261051  RH  029%=      5-min Rain = 0
KCO1 200020Z 10002KT 13/M05 A3027 RMK A01 T01251050  RH  029%=      5-min Rain = 0
KCO1 200021Z 09002KT 12/M05 A3027 RMK A01 T01231050  RH  030%=      5-min Rain = 0
KCO1 200022Z 09002KT 12/M05 A3027 RMK A01 T01211048  RH  030%=      5-min Rain = 0
KCO1 200023Z 10002KT 12/M05 A3027 RMK A01 T01181048  RH  031%=      5-min Rain = 0
KCO1 200024Z 15003KT 12/M05 A3027 RMK A01 T01171049  RH  031%=      5-min Rain = 0
KCO1 200025Z 14004KT 12/M05 A3027 RMK A01 T01151046  RH  032%=      5-min Rain = 0
KCO1 200026Z 14003KT 11/M05 A3027 RMK A01 T01131046  RH  032%=      5-min Rain = 0
KCO1 200027Z 14003KT 12/M05 A3027 RMK A01 T01151047  RH  032%=      5-min Rain = 0
KCO1 200028Z 14004KT 12/M05 A3027 RMK A01 T01161046  RH  032%=      5-min Rain = 0
KCO1 200029Z 14004KT 12/M05 A3027 RMK A01 T01161045  RH  032%=      5-min Rain = 0
KCO1 200030Z 15004KT 11/M04 A3027 RMK A01 T01131044  RH  033%=      5-min Rain = 0
KCO1 200031Z 15004KT 11/M04 A3027 RMK A01 T01121043  RH  034%=      5-min Rain = 0
KCO1 200032Z 15004KT 11/M04 A3027 RMK A01 T01111041  RH  034%=      5-min Rain = 0
KCO1 200033Z 15004KT 11/M04 A3027 RMK A01 T01091041  RH  035%=      5-min Rain = 0
KCO1 200034Z 14003KT 11/M04 A3027 RMK A01 T01061041  RH  035%=      5-min Rain = 0
KCO1 200035Z 14003KT 10/M04 A3027 RMK A01 T01041041  RH  036%=      5-min Rain = 0
KCO1 200036Z 13003KT 10/M04 A3027 RMK A01 T01031040  RH  036%=      5-min Rain = 0
KCO1 200037Z 12003KT 10/M04 A3027 RMK A01 T01021040  RH  037%=      5-min Rain = 0
KCO1 200038Z 11003KT 10/M04 A3027 RMK A01 T01021040  RH  037%=      5-min Rain = 0
KCO1 200039Z 11003KT 10/M04 A3027 RMK A01 T01011040  RH  037%=      5-min Rain = 0
KCO1 200040Z 10003KT 10/M04 A3027 RMK A01 T01011040  RH  037%=      5-min Rain = 0
KCO1 200041Z 10003KT 10/M04 A3027 RMK A01 T01011041  RH  036%=      5-min Rain = 0
KCO1 200042Z 10003KT 10/M04 A3027 RMK A01 T01011041  RH  037%=      5-min Rain = 0
KCO1 200043Z 10003KT 10/M04 A3027 RMK A01 T01001041  RH  037%=      5-min Rain = 0
KCO1 200044Z 11003KT 10/M04 A3027 RMK A01 T01001041  RH  037%=      5-min Rain = 0
KCO1 200045Z 11003KT 10/M04 A3027 RMK A01 T01001041  RH  037%=      5-min Rain = 0
KCO1 200046Z 11003KT 10/M04 A3027 RMK A01 T00991041  RH  037%=      5-min Rain = 0
KCO1 200047Z 10003KT 10/M04 A3027 RMK A01 T00991041  RH  037%=      5-min Rain = 0
KCO1 200048Z 11003KT 10/M04 A3027 RMK A01 T00991040  RH  037%=      5-min Rain = 0
KCO1 200049Z 11003KT 10/M04 A3027 RMK A01 T00981041  RH  037%=      5-min Rain = 0
KCO1 200050Z 11004KT 10/M04 A3027 RMK A01 T00981041  RH  038%=      5-min Rain = 0
KCO1 200051Z 12004KT 10/M04 A3027 RMK A01 T00971041  RH  038%=      5-min Rain = 0
KCO1 200052Z 12004KT 10/M04 A3027 RMK A01 T00961040  RH  038%=      5-min Rain = 0
KCO1 200053Z 12004KT 10/M04 A3027 RMK A01 T00951040  RH  038%=      5-min Rain = 0
KCO1 200054Z 12004KT 09/M04 A3027 RMK A01 T00931039  RH  039%=      5-min Rain = 0
KCO1 200055Z 12004KT 09/M04 A3027 RMK A01 T00911038  RH  040%=      5-min Rain = 0
KCO1 200056Z 12004KT 09/M04 A3027 RMK A01 T00891038  RH  040%=      5-min Rain = 0
KCO1 200057Z 12005KT 09/M04 A3027 RMK A01 T00881038  RH  041%=      5-min Rain = 0
KCO1 200058Z 12005KT 09/M04 A3027 RMK A01 T00871038  RH  041%=      5-min Rain = 0
KCO1 200059Z 12005KT 09/M04 A3027 RMK A01 T00861037  RH  041%=      5-min Rain = 0
KCO1 200100Z 12004KT 09/M04 A3027 RMK A01 T00851037  RH  042%=      5-min Rain = 0
KCO1 200101Z 12005KT 09/M04 A3027 RMK A01 T00851037  RH  042%=      5-min Rain = 0
KCO1 200102Z 12004KT 09/M04 A3027 RMK A01 T00851037  RH  042%=      5-min Rain = 0
KCO1 200103Z 12004KT 08/M04 A3027 RMK A01 T00841037  RH  042%=      5-min Rain = 0
KCO1 200104Z 12005KT 08/M04 A3027 RMK A01 T00841037  RH  042%=      5-min Rain = 0
KCO1 200105Z 12005KT 08/M04 A3027 RMK A01 T00841038  RH  042%=      5-min Rain = 0
KCO1 200106Z 12005KT 08/M04 A3027 RMK A01 T00831038  RH  042%=      5-min Rain = 0
KCO1 200107Z 12005KT 08/M04 A3027 RMK A01 T00821037  RH  043%=      5-min Rain = 0
KCO1 200108Z 13005KT 08/M04 A3027 RMK A01 T00811037  RH  043%=      5-min Rain = 0
KCO1 200109Z 13005KT 08/M04 A3027 RMK A01 T00801037  RH  043%=      5-min Rain = 0
KCO1 200110Z 13005KT 08/M04 A3027 RMK A01 T00791037  RH  044%=      5-min Rain = 0
KCO1 200111Z 14005KT 08/M04 A3027 RMK A01 T00781038  RH  044%=      5-min Rain = 0
KCO1 200112Z 14005KT 08/M04 A3027 RMK A01 T00761038  RH  044%=      5-min Rain = 0
KCO1 200113Z 14005KT 08/M04 A3027 RMK A01 T00751039  RH  044%=      5-min Rain = 0
KCO1 200114Z 14005KT 08/M04 A3027 RMK A01 T00751038  RH  045%=      5-min Rain = 0
KCO1 200115Z 14005KT 07/M04 A3027 RMK A01 T00741038  RH  045%=      5-min Rain = 0
KCO1 200116Z 13005KT 07/M04 A3028 RMK A01 T00731037  RH  045%=      5-min Rain = 0
KCO1 200117Z 13005KT 07/M04 A3028 RMK A01 T00731037  RH  045%=      5-min Rain = 0
KCO1 200118Z 14004KT 07/M04 A3028 RMK A01 T00721037  RH  046%=      5-min Rain = 0
KCO1 200119Z 13005KT 07/M04 A3028 RMK A01 T00711037  RH  046%=      5-min Rain = 0
KCO1 200120Z 13005KT 07/M04 A3028 RMK A01 T00711036  RH  046%=      5-min Rain = 0
KCO1 200121Z 12005KT 07/M04 A3028 RMK A01 T00711037  RH  046%=      5-min Rain = 0
KCO1 200122Z 12005KT 07/M04 A3027 RMK A01 T00711037  RH  046%=      5-min Rain = 0
KCO1 200123Z 12005KT 07/M04 A3027 RMK A01 T00701037  RH  047%=      5-min Rain = 0
KCO1 200124Z 12005KT 07/M04 A3028 RMK A01 T00681037  RH  047%=      5-min Rain = 0
KCO1 200125Z 12005KT 07/M04 A3028 RMK A01 T00671037  RH  047%=      5-min Rain = 0
KCO1 200126Z 13005KT 07/M04 A3028 RMK A01 T00661037  RH  047%=      5-min Rain = 0
KCO1 200127Z 14006KT 07/M04 A3028 RMK A01 T00661038  RH  047%=      5-min Rain = 0
KCO1 200128Z 14006KT 07/M04 A3028 RMK A01 T00661038  RH  047%=      5-min Rain = 0
KCO1 200129Z 14006KT 07/M04 A3028 RMK A01 T00661038  RH  047%=      5-min Rain = 0
KCO1 200130Z 14006KT 07/M04 A3028 RMK A01 T00661038  RH  047%=      5-min Rain = 0
KCO1 200131Z 14006KT 07/M04 A3028 RMK A01 T00661038  RH  047%=      5-min Rain = 0
KCO1 200132Z 13006KT 07/M04 A3028 RMK A01 T00661038  RH  047%=      5-min Rain = 0
KCO1 200133Z 13005KT 07/M04 A3028 RMK A01 T00661038  RH  047%=      5-min Rain = 0
KCO1 200134Z 12005KT 07/M04 A3028 RMK A01 T00661039  RH  047%=      5-min Rain = 0
KCO1 200135Z 12005KT 07/M04 A3028 RMK A01 T00661039  RH  047%=      5-min Rain = 0
KCO1 200136Z 12005KT 07/M04 A3028 RMK A01 T00681039  RH  047%=      5-min Rain = 0
KCO1 200137Z 12005KT 07/M04 A3028 RMK A01 T00691039  RH  046%=      5-min Rain = 0
KCO1 200138Z 12005KT 07/M04 A3028 RMK A01 T00701039  RH  046%=      5-min Rain = 0
KCO1 200139Z 12005KT 07/M04 A3028 RMK A01 T00701039  RH  046%=      5-min Rain = 0
KCO1 200140Z 13006KT 07/M04 A3028 RMK A01 T00691039  RH  046%=      5-min Rain = 0
KCO1 200141Z 14006KT 07/M04 A3028 RMK A01 T00691039  RH  046%=      5-min Rain = 0
KCO1 200142Z 14007KT 07/M04 A3028 RMK A01 T00681039  RH  046%=      5-min Rain = 0
KCO1 200143Z 15008KT 07/M04 A3028 RMK A01 T00671039  RH  047%=      5-min Rain = 0
KCO1 200144Z 16008KT 07/M04 A3028 RMK A01 T00661039  RH  047%=      5-min Rain = 0
KCO1 200145Z 15008KT 07/M04 A3028 RMK A01 T00651039  RH  047%=      5-min Rain = 0
KCO1 200146Z 15007KT 07/M04 A3028 RMK A01 T00651039  RH  047%=      5-min Rain = 0
KCO1 200147Z 14007KT 07/M04 A3028 RMK A01 T00651038  RH  047%=      5-min Rain = 0
KCO1 200148Z 13006KT 07/M04 A3028 RMK A01 T00671038  RH  047%=      5-min Rain = 0
KCO1 200149Z 12006KT 07/M04 A3028 RMK A01 T00671038  RH  047%=      5-min Rain = 0
KCO1 200150Z 12005KT 07/M04 A3028 RMK A01 T00681039  RH  046%=      5-min Rain = 0
KCO1 200151Z 11005KT 07/M04 A3028 RMK A01 T00691040  RH  046%=      5-min Rain = 0
KCO1 200152Z 11005KT 07/M04 A3027 RMK A01 T00691040  RH  046%=      5-min Rain = 0
KCO1 200153Z 10005KT 07/M04 A3027 RMK A01 T00691040  RH  046%=      5-min Rain = 0
KCO1 200154Z 10005KT 07/M04 A3027 RMK A01 T00691041  RH  046%=      5-min Rain = 0
KCO1 200155Z 10005KT 07/M04 A3027 RMK A01 T00691040  RH  046%=      5-min Rain = 0
KCO1 200156Z 10005KT 07/M04 A3027 RMK A01 T00691040  RH  046%=      5-min Rain = 0
KCO1 200157Z 11005KT 07/M04 A3027 RMK A01 T00691040  RH  046%=      5-min Rain = 0
KCO1 200158Z 11005KT 07/M04 A3028 RMK A01 T00691041  RH  046%=      5-min Rain = 0
KCO1 200159Z 11005KT 07/M04 A3028 RMK A01 T00691041  RH  046%=      5-min Rain = 0
KCO1 200200Z 12006KT 07/M04 A3028 RMK A01 T00681041  RH  046%=      5-min Rain = 0
KCO1 200201Z 12006KT 07/M04 A3028 RMK A01 T00661040  RH  047%=      5-min Rain = 0
KCO1 200202Z 13007KT 06/M04 A3028 RMK A01 T00641040  RH  047%=      5-min Rain = 0
KCO1 200203Z 13007KT 06/M04 A3028 RMK A01 T00621040  RH  048%=      5-min Rain = 0
KCO1 200204Z 14007KT 06/M04 A3028 RMK A01 T00611040  RH  048%=      5-min Rain = 0
KCO1 200205Z 15007KT 06/M04 A3028 RMK A01 T00601039  RH  049%=      5-min Rain = 0
KCO1 200206Z 15007KT 06/M04 A3028 RMK A01 T00591039  RH  049%=      5-min Rain = 0
KCO1 200207Z 15007KT 06/M04 A3028 RMK A01 T00591038  RH  050%=      5-min Rain = 0
KCO1 200208Z 15007KT 06/M04 A3028 RMK A01 T00581037  RH  050%=      5-min Rain = 0
KCO1 200209Z 14007KT 06/M04 A3028 RMK A01 T00581037  RH  050%=      5-min Rain = 0
KCO1 200210Z 14007KT 06/M04 A3028 RMK A01 T00591037  RH  050%=      5-min Rain = 0
KCO1 200211Z 14007KT 06/M04 A3028 RMK A01 T00591037  RH  050%=      5-min Rain = 0
KCO1 200212Z 14007KT 06/M04 A3028 RMK A01 T00601037  RH  050%=      5-min Rain = 0
KCO1 200213Z 15007KT 06/M04 A3028 RMK A01 T00601037  RH  050%=      5-min Rain = 0
KCO1 200214Z 16007KT 06/M04 A3028 RMK A01 T00591037  RH  050%=      5-min Rain = 0
KCO1 200215Z 16008KT 06/M04 A3028 RMK A01 T00591037  RH  050%=      5-min Rain = 0
KCO1 200216Z 17008KT 06/M04 A3028 RMK A01 T00581037  RH  051%=      5-min Rain = 0
KCO1 200217Z 16008KT 06/M04 A3028 RMK A01 T00571037  RH  051%=      5-min Rain = 0
KCO1 200218Z 16007KT 06/M04 A3028 RMK A01 T00571037  RH  051%=      5-min Rain = 0
KCO1 200219Z 15007KT 06/M04 A3028 RMK A01 T00581037  RH  050%=      5-min Rain = 0
KCO1 200220Z 15007KT 06/M04 A3028 RMK A01 T00591037  RH  050%=      5-min Rain = 0
KCO1 200221Z 15007KT 06/M04 A3028 RMK A01 T00591037  RH  050%=      5-min Rain = 0
KCO1 200222Z 15007KT 06/M04 A3028 RMK A01 T00591037  RH  050%=      5-min Rain = 0
KCO1 200223Z 15008KT 06/M04 A3028 RMK A01 T00591037  RH  050%=      5-min Rain = 0
KCO1 200224Z 16008KT 06/M04 A3028 RMK A01 T00581037  RH  051%=      5-min Rain = 0
KCO1 200225Z 16008KT 06/M04 A3028 RMK A01 T00571037  RH  051%=      5-min Rain = 0
KCO1 200226Z 16008KT 06/M04 A3028 RMK A01 T00571037  RH  051%=      5-min Rain = 0
KCO1 200227Z 16008KT 06/M04 A3028 RMK A01 T00571037  RH  051%=      5-min Rain = 0
KCO1 200228Z 17008KT 06/M04 A3028 RMK A01 T00581037  RH  051%=      5-min Rain = 0
KCO1 200229Z 17008KT 06/M04 A3028 RMK A01 T00591037  RH  050%=      5-min Rain = 0
KCO1 200230Z 17008KT 06/M04 A3028 RMK A01 T00611037  RH  050%=      5-min Rain = 0
KCO1 200231Z 17009KT 06/M04 A3028 RMK A01 T00611037  RH  049%=      5-min Rain = 0
KCO1 200232Z 17009KT 06/M04 A3028 RMK A01 T00611037  RH  049%=      5-min Rain = 0
KCO1 200233Z 17009KT 06/M04 A3028 RMK A01 T00621037  RH  049%=      5-min Rain = 0
KCO1 200234Z 17009KT 06/M04 A3028 RMK A01 T00621037  RH  049%=      5-min Rain = 0
KCO1 200235Z 17008KT 06/M04 A3028 RMK A01 T00631037  RH  048%=      5-min Rain = 0
KCO1 200236Z 16008KT 07/M04 A3028 RMK A01 T00651037  RH  048%=      5-min Rain = 0
KCO1 200237Z 16008KT 07/M04 A3028 RMK A01 T00661037  RH  048%=      5-min Rain = 0
KCO1 200238Z 16007KT 07/M04 A3028 RMK A01 T00671037  RH  048%=      5-min Rain = 0
KCO1 200239Z 16007KT 07/M04 A3028 RMK A01 T00681036  RH  047%=      5-min Rain = 0
KCO1 200240Z 15007KT 07/M04 A3027 RMK A01 T00681036  RH  047%=      5-min Rain = 0
KCO1 200241Z 15007KT 07/M04 A3027 RMK A01 T00681036  RH  047%=      5-min Rain = 0
KCO1 200242Z 15008KT 07/M04 A3027 RMK A01 T00681036  RH  047%=      5-min Rain = 0
KCO1 200243Z 15008KT 07/M04 A3027 RMK A01 T00681036  RH  047%=      5-min Rain = 0
KCO1 200244Z 15008KT 07/M04 A3027 RMK A01 T00681037  RH  047%=      5-min Rain = 0
KCO1 200245Z 16008KT 07/M04 A3027 RMK A01 T00671037  RH  047%=      5-min Rain = 0
KCO1 200246Z 17008KT 07/M04 A3028 RMK A01 T00671037  RH  048%=      5-min Rain = 0
KCO1 200247Z 17007KT 07/M04 A3028 RMK A01 T00671036  RH  048%=      5-min Rain = 0
KCO1 200248Z 17007KT 07/M04 A3028 RMK A01 T00671036  RH  048%=      5-min Rain = 0
KCO1 200249Z 17007KT 07/M04 A3028 RMK A01 T00671036  RH  048%=      5-min Rain = 0
KCO1 200250Z 17007KT 07/M04 A3028 RMK A01 T00681037  RH  047%=      5-min Rain = 0
KCO1 200251Z 17007KT 07/M04 A3028 RMK A01 T00681037  RH  047%=      5-min Rain = 0
KCO1 200252Z 17007KT 07/M04 A3028 RMK A01 T00681037  RH  047%=      5-min Rain = 0
KCO1 200253Z 16007KT 07/M04 A3028 RMK A01 T00671037  RH  047%=      5-min Rain = 0
KCO1 200254Z 16007KT 07/M04 A3028 RMK A01 T00661037  RH  047%=      5-min Rain = 0
KCO1 200255Z 16008KT 07/M04 A3028 RMK A01 T00671037  RH  048%=      5-min Rain = 0
KCO1 200256Z 16008KT 07/M04 A3028 RMK A01 T00661037  RH  048%=      5-min Rain = 0
KCO1 200257Z 16008KT 07/M04 A3028 RMK A01 T00671037  RH  048%=      5-min Rain = 0
KCO1 200258Z 17008KT 07/M04 A3028 RMK A01 T00671036  RH  048%=      5-min Rain = 0
KCO1 200259Z 17008KT 07/M04 A3028 RMK A01 T00681036  RH  047%=      5-min Rain = 0
KCO1 200300Z 17008KT 07/M04 A3028 RMK A01 T00691037  RH  047%=      5-min Rain = 0
KCO1 200301Z 17008KT 07/M04 A3028 RMK A01 T00691037  RH  047%=      5-min Rain = 0
KCO1 200302Z 17008KT 07/M04 A3028 RMK A01 T00691037  RH  047%=      5-min Rain = 0
KCO1 200303Z 17008KT 07/M04 A3028 RMK A01 T00691037  RH  047%=      5-min Rain = 0
KCO1 200304Z 16007KT 07/M04 A3028 RMK A01 T00691037  RH  047%=      5-min Rain = 0
KCO1 200305Z 16007KT 07/M04 A3028 RMK A01 T00681037  RH  047%=      5-min Rain = 0
KCO1 200306Z 16007KT 07/M04 A3029 RMK A01 T00681037  RH  047%=      5-min Rain = 0
KCO1 200307Z 16007KT 07/M04 A3029 RMK A01 T00671037  RH  048%=      5-min Rain = 0
KCO1 200308Z 16007KT 07/M04 A3029 RMK A01 T00661037  RH  048%=      5-min Rain = 0
KCO1 200309Z 16007KT 07/M04 A3029 RMK A01 T00661036  RH  048%=      5-min Rain = 0
KCO1 200310Z 16007KT 07/M04 A3029 RMK A01 T00651037  RH  048%=      5-min Rain = 0
KCO1 200311Z 16007KT 06/M04 A3029 RMK A01 T00641037  RH  048%=      5-min Rain = 0
KCO1 200312Z 16007KT 06/M04 A3029 RMK A01 T00641037  RH  049%=      5-min Rain = 0
KCO1 200313Z 16007KT 06/M04 A3029 RMK A01 T00631036  RH  049%=      5-min Rain = 0
KCO1 200314Z 16007KT 06/M04 A3029 RMK A01 T00631036  RH  049%=      5-min Rain = 0
KCO1 200315Z 16007KT 06/M04 A3029 RMK A01 T00621036  RH  049%=      5-min Rain = 0
KCO1 200316Z 16007KT 06/M04 A3029 RMK A01 T00621037  RH  049%=      5-min Rain = 0
KCO1 200317Z 16006KT 06/M04 A303 RMK A01 T00611037  RH  049%=      5-min Rain = 0
KCO1 200318Z 17006KT 06/M04 A303 RMK A01 T00601037  RH  050%=      5-min Rain = 0
KCO1 200319Z 17006KT 06/M04 A303 RMK A01 T00591037  RH  050%=      5-min Rain = 0
KCO1 200320Z 18005KT 06/M04 A3031 RMK A01 T00581037  RH  051%=      5-min Rain = 0
KCO1 200321Z 19005KT 06/M04 A3031 RMK A01 T00571037  RH  051%=      5-min Rain = 0
KCO1 200322Z 19005KT 06/M04 A3031 RMK A01 T00581036  RH  051%=      5-min Rain = 0
KCO1 200323Z 19005KT 06/M04 A3032 RMK A01 T00591037  RH  050%=      5-min Rain = 0
KCO1 200324Z 19004KT 06/M04 A3032 RMK A01 T00611038  RH  049%=      5-min Rain = 0
KCO1 200325Z 20004KT 06/M04 A3032 RMK A01 T00621039  RH  048%=      5-min Rain = 0
KCO1 200326Z 20003KT 06/M04 A3033 RMK A01 T00611040  RH  048%=      5-min Rain = 0
KCO1 200327Z 19004KT 06/M04 A3032 RMK A01 T00591041  RH  048%=      5-min Rain = 0
KCO1 200328Z 18004KT 06/M04 A3032 RMK A01 T00581042  RH  049%=      5-min Rain = 0
KCO1 200329Z 19003KT 06/M04 A3032 RMK A01 T00571042  RH  049%=      5-min Rain = 0
KCO1 200330Z 20004KT 06/M04 A3032 RMK A01 T00561042  RH  049%=      5-min Rain = 0
KCO1 200331Z 20004KT 06/M04 A3032 RMK A01 T00561041  RH  050%=      5-min Rain = 0
KCO1 200332Z 19004KT 06/M04 A3032 RMK A01 T00551041  RH  050%=      5-min Rain = 0
KCO1 200333Z 18005KT 05/M04 A3032 RMK A01 T00541041  RH  050%=      5-min Rain = 0
KCO1 200334Z 18006KT 05/M04 A3032 RMK A01 T00531040  RH  051%=      5-min Rain = 0
KCO1 200335Z 18007KT 05/M04 A3032 RMK A01 T00511039  RH  052%=      5-min Rain = 0
KCO1 200336Z 19007KT 05/M04 A3032 RMK A01 T00491039  RH  053%=      5-min Rain = 0
KCO1 200337Z 19007KT 05/M04 A3032 RMK A01 T00471038  RH  054%=      5-min Rain = 0
KCO1 200338Z 20007KT 05/M04 A3032 RMK A01 T00461038  RH  054%=      5-min Rain = 0
KCO1 200339Z 19006KT 05/M04 A3032 RMK A01 T00471037  RH  054%=      5-min Rain = 0
KCO1 200340Z 18007KT 05/M04 A3032 RMK A01 T00471038  RH  054%=      5-min Rain = 0
KCO1 200341Z 18006KT 05/M04 A3032 RMK A01 T00471038  RH  054%=      5-min Rain = 0
KCO1 200342Z 18007KT 05/M04 A3032 RMK A01 T00471039  RH  054%=      5-min Rain = 0
KCO1 200343Z 19008KT 05/M04 A3032 RMK A01 T00461039  RH  054%=      5-min Rain = 0
KCO1 200344Z 19008KT 05/M04 A3032 RMK A01 T00461039  RH  054%=      5-min Rain = 0
KCO1 200345Z 18008KT 05/M04 A3032 RMK A01 T00461039  RH  054%=      5-min Rain = 0
KCO1 200346Z 18008KT 05/M04 A3032 RMK A01 T00461039  RH  054%=      5-min Rain = 0
KCO1 200347Z 18008KT 05/M04 A3032 RMK A01 T00461039  RH  054%=      5-min Rain = 0
KCO1 200348Z 18008KT 05/M04 A3032 RMK A01 T00461039  RH  054%=      5-min Rain = 0
KCO1 200349Z 17007KT 05/M04 A3031 RMK A01 T00451038  RH  055%=      5-min Rain = 0
KCO1 200350Z 17008KT 05/M04 A3031 RMK A01 T00451037  RH  055%=      5-min Rain = 0
KCO1 200351Z 17008KT 05/M04 A3031 RMK A01 T00451037  RH  055%=      5-min Rain = 0
KCO1 200352Z 17009KT 04/M04 A303 RMK A01 T00441038  RH  055%=      5-min Rain = 0
KCO1 200353Z 17009KT 04/M04 A303 RMK A01 T00441037  RH  055%=      5-min Rain = 0
KCO1 200354Z 17009KT 04/M04 A303 RMK A01 T00441037  RH  055%=      5-min Rain = 0
KCO1 200355Z 17009KT 05/M04 A303 RMK A01 T00451037  RH  055%=      5-min Rain = 0
KCO1 200356Z 17008KT 05/M04 A3031 RMK A01 T00451036  RH  055%=      5-min Rain = 0
KCO1 200357Z 17008KT 05/M04 A3031 RMK A01 T00451036  RH  055%=      5-min Rain = 0
KCO1 200358Z 17007KT 05/M04 A3031 RMK A01 T00451037  RH  055%=      5-min Rain = 0
KCO1 200359Z 17007KT 05/M04 A3031 RMK A01 T00461036  RH  055%=      5-min Rain = 0
KCO1 200400Z 17007KT 05/M04 A3031 RMK A01 T00471036  RH  055%=      5-min Rain = 0
KCO1 200401Z 17008KT 05/M04 A3031 RMK A01 T00481037  RH  054%=      5-min Rain = 0
KCO1 200402Z 17008KT 05/M04 A3031 RMK A01 T00481036  RH  054%=      5-min Rain = 0
KCO1 200403Z 17008KT 05/M04 A303 RMK A01 T00481036  RH  054%=      5-min Rain = 0
KCO1 200404Z 17008KT 05/M04 A303 RMK A01 T00481036  RH  054%=      5-min Rain = 0
KCO1 200405Z 17008KT 05/M04 A303 RMK A01 T00471037  RH  054%=      5-min Rain = 0
KCO1 200406Z 17008KT 05/M04 A303 RMK A01 T00471037  RH  054%=      5-min Rain = 0
KCO1 200407Z 17008KT 05/M04 A303 RMK A01 T00471036  RH  055%=      5-min Rain = 0
KCO1 200408Z 17008KT 05/M04 A3031 RMK A01 T00471036  RH  055%=      5-min Rain = 0
KCO1 200409Z 17008KT 05/M04 A3031 RMK A01 T00471036  RH  055%=      5-min Rain = 0
KCO1 200410Z 17008KT 05/M04 A3031 RMK A01 T00471037  RH  055%=      5-min Rain = 0
KCO1 200411Z 17008KT 05/M04 A303 RMK A01 T00481037  RH  054%=      5-min Rain = 0
KCO1 200412Z 17008KT 05/M04 A303 RMK A01 T00501036  RH  054%=      5-min Rain = 0
KCO1 200413Z 17009KT 05/M04 A303 RMK A01 T00521036  RH  053%=      5-min Rain = 0
KCO1 200414Z 17009KT 05/M04 A303 RMK A01 T00531037  RH  052%=      5-min Rain = 0
KCO1 200415Z 17008KT 06/M04 A303 RMK A01 T00551037  RH  052%=      5-min Rain = 0
KCO1 200416Z 17008KT 06/M04 A303 RMK A01 T00561037  RH  051%=      5-min Rain = 0
KCO1 200417Z 17007KT 06/M04 A3031 RMK A01 T00571037  RH  051%=      5-min Rain = 0
KCO1 200418Z 16007KT 06/M04 A3031 RMK A01 T00581037  RH  050%=      5-min Rain = 0
KCO1 200419Z 16008KT 06/M04 A303 RMK A01 T00591037  RH  050%=      5-min Rain = 0
KCO1 200420Z 17008KT 06/M04 A303 RMK A01 T00591037  RH  050%=      5-min Rain = 0
KCO1 200421Z 17008KT 06/M04 A303 RMK A01 T00601037  RH  050%=      5-min Rain = 0
KCO1 200422Z 17008KT 06/M04 A303 RMK A01 T00601037  RH  050%=      5-min Rain = 0
KCO1 200423Z 17007KT 06/M04 A3031 RMK A01 T00601037  RH  050%=      5-min Rain = 0
KCO1 200424Z 17007KT 06/M04 A3031 RMK A01 T00601038  RH  050%=      5-min Rain = 0
KCO1 200425Z 17006KT 06/M04 A3031 RMK A01 T00581038  RH  050%=      5-min Rain = 0
KCO1 200426Z 17007KT 06/M04 A303 RMK A01 T00571038  RH  050%=      5-min Rain = 0
KCO1 200427Z 17008KT 06/M04 A303 RMK A01 T00561038  RH  051%=      5-min Rain = 0
KCO1 200428Z 17008KT 06/M04 A303 RMK A01 T00561038  RH  051%=      5-min Rain = 0
KCO1 200429Z 18008KT 06/M04 A303 RMK A01 T00551039  RH  051%=      5-min Rain = 0
KCO1 200430Z 18008KT 05/M04 A303 RMK A01 T00521039  RH  052%=      5-min Rain = 0
KCO1 200431Z 18008KT 05/M04 A303 RMK A01 T00501039  RH  052%=      5-min Rain = 0
KCO1 200432Z 17008KT 05/M04 A303 RMK A01 T00501039  RH  053%=      5-min Rain = 0
KCO1 200433Z 17008KT 05/M04 A303 RMK A01 T00481039  RH  053%=      5-min Rain = 0
KCO1 200434Z 17007KT 05/M04 A303 RMK A01 T00471039  RH  053%=      5-min Rain = 0
KCO1 200435Z 17007KT 05/M04 A303 RMK A01 T00471039  RH  054%=      5-min Rain = 0
KCO1 200436Z 17007KT 05/M04 A3031 RMK A01 T00471039  RH  054%=      5-min Rain = 0
KCO1 200437Z 18007KT 05/M04 A3031 RMK A01 T00481038  RH  054%=      5-min Rain = 0
KCO1 200438Z 18006KT 05/M04 A303 RMK A01 T00491038  RH  053%=      5-min Rain = 0
KCO1 200439Z 18007KT 05/M04 A303 RMK A01 T00491039  RH  053%=      5-min Rain = 0
KCO1 200440Z 18007KT 05/M04 A303 RMK A01 T00471039  RH  053%=      5-min Rain = 0
KCO1 200441Z 18007KT 05/M04 A303 RMK A01 T00461039  RH  054%=      5-min Rain = 0
KCO1 200442Z 18008KT 05/M04 A303 RMK A01 T00451039  RH  055%=      5-min Rain = 0
KCO1 200443Z 17008KT 04/M04 A303 RMK A01 T00431038  RH  055%=      5-min Rain = 0
KCO1 200444Z 17008KT 04/M04 A303 RMK A01 T00421038  RH  056%=      5-min Rain = 0
KCO1 200445Z 17008KT 04/M04 A303 RMK A01 T00411038  RH  056%=      5-min Rain = 0
KCO1 200446Z 17008KT 04/M04 A3031 RMK A01 T00411038  RH  057%=      5-min Rain = 0
KCO1 200447Z 17008KT 04/M04 A303 RMK A01 T00411037  RH  057%=      5-min Rain = 0
KCO1 200448Z 17007KT 04/M04 A303 RMK A01 T00411037  RH  057%=      5-min Rain = 0
KCO1 200449Z 18007KT 04/M04 A303 RMK A01 T00401037  RH  057%=      5-min Rain = 0
KCO1 200450Z 18007KT 04/M04 A303 RMK A01 T00401036  RH  058%=      5-min Rain = 0
KCO1 200451Z 17007KT 04/M04 A303 RMK A01 T00401036  RH  058%=      5-min Rain = 0
KCO1 200452Z 17007KT 04/M04 A303 RMK A01 T00401036  RH  058%=      5-min Rain = 0
KCO1 200453Z 17007KT 04/M04 A303 RMK A01 T00401036  RH  058%=      5-min Rain = 0
KCO1 200454Z 17007KT 04/M04 A303 RMK A01 T00391036  RH  058%=      5-min Rain = 0
KCO1 200455Z 17007KT 04/M04 A303 RMK A01 T00391036  RH  058%=      5-min Rain = 0
KCO1 200456Z 17008KT 04/M04 A303 RMK A01 T00391036  RH  058%=      5-min Rain = 0
KCO1 200457Z 17008KT 04/M04 A303 RMK A01 T00391036  RH  058%=      5-min Rain = 0
KCO1 200458Z 17007KT 04/M04 A3031 RMK A01 T00381036  RH  058%=      5-min Rain = 0
KCO1 200459Z 17007KT 04/M04 A303 RMK A01 T00381036  RH  058%=      5-min Rain = 0
KCO1 200500Z 17007KT 04/M04 A303 RMK A01 T00381036  RH  058%=      5-min Rain = 0
KCO1 200501Z 17008KT 04/M04 A303 RMK A01 T00381036  RH  058%=      5-min Rain = 0
KCO1 200502Z 17008KT 04/M04 A303 RMK A01 T00371037  RH  058%=      5-min Rain = 0
KCO1 200503Z 17008KT 04/M04 A303 RMK A01 T00371037  RH  058%=      5-min Rain = 0
KCO1 200504Z 17008KT 04/M04 A303 RMK A01 T00371037  RH  058%=      5-min Rain = 0
KCO1 200505Z 17008KT 04/M04 A303 RMK A01 T00391037  RH  058%=      5-min Rain = 0
KCO1 200506Z 17008KT 04/M04 A303 RMK A01 T00401037  RH  057%=      5-min Rain = 0
KCO1 200507Z 17007KT 04/M04 A303 RMK A01 T00431037  RH  056%=      5-min Rain = 0
KCO1 200508Z 18006KT 04/M04 A303 RMK A01 T00441037  RH  056%=      5-min Rain = 0
KCO1 200509Z 18007KT 05/M04 A303 RMK A01 T00451037  RH  055%=      5-min Rain = 0
KCO1 200510Z 18007KT 05/M04 A303 RMK A01 T00461037  RH  055%=      5-min Rain = 0
KCO1 200511Z 18007KT 05/M04 A303 RMK A01 T00451038  RH  055%=      5-min Rain = 0
KCO1 200512Z 18007KT 04/M04 A303 RMK A01 T00441039  RH  055%=      5-min Rain = 0
KCO1 200513Z 17007KT 04/M04 A303 RMK A01 T00431038  RH  055%=      5-min Rain = 0
KCO1 200514Z 17007KT 04/M04 A303 RMK A01 T00421039  RH  055%=      5-min Rain = 0
KCO1 200515Z 18006KT 04/M04 A3031 RMK A01 T00421039  RH  056%=      5-min Rain = 0
KCO1 200516Z 18006KT 04/M04 A3031 RMK A01 T00421039  RH  056%=      5-min Rain = 0
KCO1 200517Z 19007KT 04/M04 A303 RMK A01 T00421039  RH  056%=      5-min Rain = 0
KCO1 200518Z 20008KT 04/M04 A303 RMK A01 T00421039  RH  056%=      5-min Rain = 0
KCO1 200519Z 19008KT 04/M04 A303 RMK A01 T00431038  RH  056%=      5-min Rain = 0
KCO1 200520Z 19008KT 04/M04 A3031 RMK A01 T00441036  RH  056%=      5-min Rain = 0
KCO1 200521Z 19008KT 04/M04 A3031 RMK A01 T00441037  RH  056%=      5-min Rain = 0
KCO1 200522Z 18009KT 04/M04 A3031 RMK A01 T00441037  RH  056%=      5-min Rain = 0
KCO1 200523Z 18008KT 04/M04 A3031 RMK A01 T00441037  RH  055%=      5-min Rain = 0
KCO1 200524Z 18008KT 05/M04 A3031 RMK A01 T00451037  RH  055%=      5-min Rain = 0
KCO1 200525Z 18007KT 04/M04 A3031 RMK A01 T00441037  RH  056%=      5-min Rain = 0
KCO1 200526Z 18007KT 04/M04 A3031 RMK A01 T00441037  RH  056%=      5-min Rain = 0
KCO1 200527Z 18007KT 04/M04 A3031 RMK A01 T00431037  RH  056%=      5-min Rain = 0
KCO1 200528Z 18007KT 04/M04 A3031 RMK A01 T00421037  RH  057%=      5-min Rain = 0
KCO1 200529Z 18008KT 04/M04 A3031 RMK A01 T00411037  RH  057%=      5-min Rain = 0
KCO1 200530Z 18008KT 04/M04 A3031 RMK A01 T00401036  RH  058%=      5-min Rain = 0
KCO1 200531Z 18007KT 04/M04 A3031 RMK A01 T00391036  RH  058%=      5-min Rain = 0
KCO1 200532Z 18007KT 04/M04 A3031 RMK A01 T00391036  RH  058%=      5-min Rain = 0
KCO1 200533Z 18007KT 04/M04 A3031 RMK A01 T00391037  RH  058%=      5-min Rain = 0
KCO1 200534Z 18007KT 04/M04 A3031 RMK A01 T00391036  RH  058%=      5-min Rain = 0
KCO1 200535Z 18008KT 04/M04 A3031 RMK A01 T00391036  RH  058%=      5-min Rain = 0
KCO1 200536Z 18007KT 04/M04 A3031 RMK A01 T00391037  RH  058%=      5-min Rain = 0
KCO1 200537Z 19007KT 04/M04 A3031 RMK A01 T00391036  RH  058%=      5-min Rain = 0
KCO1 200538Z 19007KT 04/M04 A3031 RMK A01 T00401037  RH  058%=      5-min Rain = 0
KCO1 200539Z 19008KT 04/M04 A3031 RMK A01 T00411036  RH  057%=      5-min Rain = 0
KCO1 200540Z 19008KT 04/M04 A3031 RMK A01 T00411036  RH  057%=      5-min Rain = 0
KCO1 200541Z 18008KT 04/M04 A3031 RMK A01 T00411037  RH  057%=      5-min Rain = 0
KCO1 200542Z 18008KT 04/M04 A303 RMK A01 T00401037  RH  057%=      5-min Rain = 0
KCO1 200543Z 18009KT 04/M04 A303 RMK A01 T00401036  RH  057%=      5-min Rain = 0
KCO1 200544Z 18008KT 04/M04 A303 RMK A01 T00411036  RH  057%=      5-min Rain = 0
KCO1 200545Z 18008KT 04/M04 A303 RMK A01 T00411037  RH  057%=      5-min Rain = 0
KCO1 200546Z 18008KT 04/M04 A303 RMK A01 T00421036  RH  057%=      5-min Rain = 0
KCO1 200547Z 19008KT 04/M04 A3031 RMK A01 T00431037  RH  056%=      5-min Rain = 0
KCO1 200548Z 18007KT 04/M04 A3031 RMK A01 T00431038  RH  056%=      5-min Rain = 0
KCO1 200549Z 19007KT 04/M04 A3031 RMK A01 T00431038  RH  056%=      5-min Rain = 0
KCO1 200550Z 19007KT 04/M04 A3031 RMK A01 T00431038  RH  056%=      5-min Rain = 0
KCO1 200551Z 19008KT 04/M04 A3031 RMK A01 T00431038  RH  056%=      5-min Rain = 0
KCO1 200552Z 19008KT 04/M04 A3031 RMK A01 T00421038  RH  056%=      5-min Rain = 0
KCO1 200553Z 19008KT 04/M04 A3031 RMK A01 T00411039  RH  056%=      5-min Rain = 0
KCO1 200554Z 19007KT 04/M04 A3031 RMK A01 T00391039  RH  057%=      5-min Rain = 0
KCO1 200555Z 19007KT 04/M04 A3031 RMK A01 T00371040  RH  057%=      5-min Rain = 0
KCO1 200556Z 19006KT 04/M04 A3031 RMK A01 T00351041  RH  058%=      5-min Rain = 0
KCO1 200557Z 20007KT 03/M04 A3031 RMK A01 T00331042  RH  058%=      5-min Rain = 0
KCO1 200558Z 20007KT 03/M04 A3031 RMK A01 T00311041  RH  059%=      5-min Rain = 0
KCO1 200559Z 20007KT 03/M04 A3031 RMK A01 T00301041  RH  060%=      5-min Rain = 0

Page generated in 0.1499 seconds.